Flight Track Log - Related Links

Times and Time Zones

All times are in EST time to prevent confusion due to time zone crossing. See the AFL150 flight status page for this flight to view local times or setup timezone preferences in your user account.

Time Position Orientation Groundspeed Altitude Reporting Facility
EST Latitude Longitude Course Direction KTS MPH feet Rate Location/Type
Fri 04:42:43 AM 55.9740 37.4300 344° North 110 127  Level FlightAware ADS-B
Fri 04:43:27 AM 55.9650 37.3680 255° West 186 214 1,900 2,286 Climbing FlightAware ADS-B
Fri 04:44:07 AM 55.9560 37.3090 255° West 199 229 3,200 1,800 Climbing FlightAware ADS-B
Fri 04:44:47 AM 55.9460 37.2390 256° West 230 265 4,300 1,948 Climbing FlightAware ADS-B
Fri 04:45:24 AM 55.9490 37.1690 274° West 240 276 5,700 2,026 Climbing FlightAware ADS-B
Fri 04:46:04 AM 55.9580 37.0880 281° West 267 307 6,900 2,203 Climbing FlightAware ADS-B
Fri 04:46:43 AM 55.9720 37.0010 286° West 284 327 8,600 2,625 Climbing FlightAware ADS-B
Fri 04:47:24 AM 55.9960 36.9160 297° West 289 333 10,400 2,080 Climbing FlightAware ADS-B
Fri 04:47:58 AM 56.0180 36.8370 297° West 321 369 11,200 1,425 Climbing FlightAware ADS-B
Fri 04:48:44 AM 56.0740 36.7560 321° Northwest 368 423 12,300 1,875 Climbing FlightAware ADS-B
Fri 04:49:18 AM 56.1260 36.7020 330° Northwest 377 434 13,700 2,351 Climbing FlightAware ADS-B
Fri 04:49:58 AM 56.1870 36.6390 330° Northwest 388 447 15,200 2,329 Climbing FlightAware ADS-B
Fri 04:50:43 AM 56.2580 36.5660 330° Northwest 396 456 17,000 2,375 Climbing FlightAware ADS-B
Fri 04:51:34 AM 56.3360 36.4830 329° Northwest 400 460 19,000 2,191 Climbing FlightAware ADS-B
Fri 04:52:38 AM 56.4410 36.3730 330° Northwest 407 468 21,200 1,980 Climbing FlightAware ADS-B
Fri 04:53:14 AM 56.4980 36.3120 329° Northwest 412 474 22,300 1,971 Climbing FlightAware ADS-B
Fri 04:53:48 AM 56.5550 36.2520 330° Northwest 412 474 23,500 2,432 Climbing FlightAware ADS-B
Fri 04:54:28 AM 56.6210 36.1810 329° Northwest 400 460 25,300 2,118 Climbing FlightAware ADS-B
Fri 04:55:13 AM 56.6930 36.1050 330° Northwest 403 464 26,500 1,760 Climbing FlightAware ADS-B
Fri 04:55:43 AM 56.7410 36.0520 329° Northwest 399 459 27,500 1,938 Climbing FlightAware ADS-B
Fri 04:56:18 AM 56.7950 35.9940 330° Northwest 395 455 28,600 1,750 Climbing FlightAware ADS-B
Fri 04:56:55 AM 56.8470 35.9380 330° Northwest 388 447 29,600 1,120 Climbing FlightAware ADS-B
Fri 04:57:33 AM 56.9110 35.8680 329° Northwest 393 452 30,000 308 Climbing FlightAware ADS-B
Fri 04:58:13 AM 56.9740 35.7990 329° Northwest 394 453 30,000  Level FlightAware ADS-B
Fri 04:58:58 AM 57.0420 35.7240 329° Northwest 391 450 30,000  Level FlightAware ADS-B
Fri 04:59:33 AM 57.0960 35.6650 329° Northwest 392 451 30,000  Level FlightAware ADS-B
Fri 05:00:13 AM 57.1600 35.5950 329° Northwest 392 451 30,000  Level FlightAware ADS-B
Fri 05:00:49 AM 57.2120 35.5370 329° Northwest 392 451 30,000  Level FlightAware ADS-B
Fri 05:01:20 AM 57.2630 35.4800 329° Northwest 392 451 30,000  Level FlightAware ADS-B
Fri 05:02:10 AM 57.3410 35.3940 329° Northwest 390 449 30,000  Level FlightAware ADS-B
Fri 05:02:56 AM 57.4100 35.3160 329° Northwest 390 449 30,000  Level FlightAware ADS-B
Fri 05:03:35 AM 57.4720 35.2460 329° Northwest 391 450 30,000  Level FlightAware ADS-B
Fri 05:04:15 AM 57.5330 35.1780 329° Northwest 391 450 30,000  Level FlightAware ADS-B
Fri 05:05:00 AM 57.6030 35.0970 328° Northwest 392 451 30,000  Level FlightAware ADS-B
Fri 05:05:30 AM 57.6490 35.0450 329° Northwest 392 451 30,000  Level FlightAware ADS-B
Fri 05:06:35 AM 57.7440 34.9290 327° Northwest 388 447 30,000  Level FlightAware ADS-B
Fri 05:07:25 AM 57.8200 34.8250 324° Northwest 388 447 30,000  Level FlightAware ADS-B
Fri 05:08:05 AM 57.8780 34.7450 324° Northwest 389 448 30,000  Level FlightAware ADS-B
Fri 05:08:40 AM 57.9290 34.6740 324° Northwest 390 449 30,000  Level FlightAware ADS-B
Fri 05:09:20 AM 57.9850 34.5960 324° Northwest 391 450 30,000  Level FlightAware ADS-B
Fri 05:10:00 AM 58.0440 34.5140 324° Northwest 391 450 30,000  Level FlightAware ADS-B
Fri 05:10:40 AM 58.1020 34.4310 323° Northwest 392 451 30,000  Level FlightAware ADS-B
Fri 05:11:28 AM 58.1610 34.3490 324° Northwest 392 451 30,000  Level FlightAware ADS-B
Fri 05:12:06 AM 58.2230 34.2530 321° Northwest 392 451 30,000  Level FlightAware ADS-B
Fri 05:12:45 AM 58.2770 34.1710 321° Northwest 393 452 30,000  Level FlightAware ADS-B
Fri 05:13:27 AM 58.3350 34.0810 321° Northwest 392 451 30,000  Level FlightAware ADS-B
Fri 05:14:18 AM 58.3960 33.9870 321° Northwest 392 451 30,000  Level FlightAware ADS-B
Fri 05:14:51 AM 58.4560 33.8960 322° Northwest 394 453 30,000  Level FlightAware ADS-B
Fri 05:15:42 AM 58.5170 33.8000 321° Northwest 394 453 30,000  Level FlightAware ADS-B
Fri 05:16:18 AM 58.5610 33.7330 322° Northwest 394 453 30,000  Level FlightAware ADS-B
Fri 05:17:00 AM 58.6410 33.6090 321° Northwest 399 459 30,000  Level FlightAware ADS-B
Fri 05:17:33 AM 58.6880 33.5350 321° Northwest 400 460 30,000  Level FlightAware ADS-B
Fri 05:18:05 AM 58.7330 33.4620 320° Northwest 399 459 30,000  Level FlightAware ADS-B
Fri 05:18:27 AM 58.7620 33.4090 317° Northwest 398 458 30,000  Level FlightAware ADS-B
Fri 05:19:18 AM 58.8180 33.3000 315° West 398 458 30,000  Level FlightAware ADS-B
Fri 05:19:45 AM 58.8640 33.2120 315° West 402 463 30,000  Level FlightAware ADS-B
Fri 05:20:48 AM 58.9470 33.0500 315° West 406 467 30,000  Level FlightAware ADS-B
Fri 05:21:33 AM 59.0070 32.9330 315° West 408 470 30,000  Level FlightAware ADS-B
Fri 05:22:19 AM 59.0660 32.8180 315° West 410 472 30,000  Level FlightAware ADS-B
Fri 05:22:53 AM 59.1130 32.7250 315° West 410 472 30,000  Level FlightAware ADS-B
Fri 05:23:53 AM 59.1910 32.5700 315° West 413 475 30,000  Level FlightAware ADS-B
Fri 05:24:37 AM 59.2520 32.4480 314° West 413 475 30,000  Level FlightAware ADS-B
Fri 05:25:23 AM 59.3120 32.3280 314° West 413 475 30,000  Level FlightAware ADS-B
Fri 05:26:08 AM 59.3720 32.2050 314° West 413 475 30,000  Level FlightAware ADS-B
Fri 05:26:43 AM 59.4180 32.1120 314° West 411 473 30,000  Level FlightAware ADS-B
Fri 05:27:20 AM 59.4500 32.0050 301° West 397 457 30,000  Level FlightAware ADS-B
Fri 05:28:03 AM 59.4620 31.8490 279° West 393 452 30,000  Level FlightAware ADS-B
Fri 05:28:43 AM 59.4710 31.7000 277° West 393 452 30,000  Level FlightAware ADS-B
Fri 05:29:13 AM 59.4770 31.5940 276° West 394 453 30,000  Level FlightAware ADS-B
Fri 05:29:43 AM 59.4830 31.4910 277° West 394 453 30,000  Level FlightAware ADS-B
Fri 05:30:28 AM 59.4920 31.3300 276° West 395 455 30,000  Level FlightAware ADS-B
Fri 05:31:13 AM 59.5020 31.1680 277° West 395 455 30,000  Level FlightAware ADS-B
Fri 05:31:53 AM 59.5090 31.0250 276° West 395 455 30,000  Level FlightAware ADS-B
Fri 05:32:28 AM 59.5160 30.9020 276° West 395 455 30,000  Level FlightAware ADS-B
Fri 05:33:13 AM 59.5250 30.7390 276° West 396 456 30,000  Level FlightAware ADS-B
Fri 05:33:55 AM 59.5320 30.5930 275° West 397 457 30,000  Level FlightAware ADS-B
Fri 05:34:31 AM 59.5390 30.4640 276° West 395 455 30,000  Level FlightAware ADS-B
Fri 05:35:39 AM 59.5500 30.2250 275° West 396 456 30,000  Level FlightAware ADS-B
Fri 05:36:13 AM 59.5570 30.0970 276° West 397 457 30,000  Level FlightAware ADS-B
Fri 05:36:48 AM 59.5630 29.9720 275° West 398 458 30,000  Level FlightAware ADS-B
Fri 05:37:28 AM 59.5690 29.8220 275° West 399 459 30,000  Level FlightAware ADS-B
Fri 05:38:09 AM 59.5760 29.6830 276° West 398 458 30,000  Level FlightAware ADS-B
Fri 05:38:44 AM 59.5810 29.5570 275° West 398 458 30,000  Level FlightAware ADS-B
Fri 05:39:32 AM 59.5890 29.3840 275° West 398 458 30,000  Level FlightAware ADS-B
Fri 05:40:08 AM 59.5940 29.2490 274° West 398 458 30,000  Level FlightAware ADS-B
Fri 05:40:45 AM 59.6000 29.1160 275° West 398 458 30,000  Level FlightAware ADS-B
Fri 05:41:33 AM 59.6070 28.9430 275° West 399 459 30,000  Level FlightAware ADS-B
Fri 05:42:09 AM 59.6120 28.8120 274° West 399 459 30,000  Level FlightAware ADS-B
Fri 05:42:58 AM 59.6320 28.6420 283° West 402 463 30,000  Level FlightAware ADS-B
Fri 05:43:39 AM 59.6540 28.4880 286° West 403 464 30,000  Level FlightAware ADS-B
Fri 05:44:24 AM 59.6760 28.3420 287° West 403 464 30,000  Level FlightAware ADS-B
Fri 05:45:06 AM 59.6980 28.1890 286° West 403 464 30,000  Level FlightAware ADS-B
Fri 05:45:48 AM 59.7190 28.0370 285° West 402 463 30,000  Level FlightAware ADS-B
Fri 05:46:52 AM 59.7510 27.8110 286° West 402 463 30,000  Level FlightAware ADS-B
Fri 05:47:26 AM 59.7680 27.6880 285° West 402 463 30,000  Level FlightAware ADS-B
Fri 05:48:03 AM 59.7860 27.5570 285° West 402 463 30,000  Level FlightAware ADS-B
Fri 05:48:41 AM 59.8040 27.4220 285° West 402 463 30,000  Level FlightAware ADS-B
Fri 05:49:16 AM 59.8210 27.2990 285° West 402 463 30,000  Level FlightAware ADS-B
Fri 05:49:53 AM 59.8390 27.1680 285° West 403 464 30,000  Level FlightAware ADS-B
Fri 05:50:32 AM 59.8570 27.0260 284° West 403 464 30,000  Level FlightAware ADS-B
Fri 05:51:17 AM 59.8790 26.8640 285° West 403 464 30,000  Level FlightAware ADS-B
Fri 05:51:46 AM 59.8920 26.7640 285° West 402 463 30,000  Level FlightAware ADS-B
Fri 05:52:25 AM 59.9100 26.6230 284° West 402 463 30,000  Level FlightAware ADS-B
Fri 05:53:05 AM 59.9290 26.4780 285° West 402 463 30,000  Level FlightAware ADS-B
Fri 05:53:40 AM 59.9450 26.3520 284° West 405 466 30,000  Level FlightAware ADS-B
Fri 05:54:21 AM 59.9640 26.2030 284° West 405 466 30,000  Level FlightAware ADS-B
Fri 05:54:58 AM 59.9950 26.0830 297° West 417 480 30,000  Level FlightAware ADS-B
Fri 05:55:42 AM 60.0600 25.9720 320° Northwest 422 486 30,000  Level FlightAware ADS-B
Fri 05:56:23 AM 60.1220 25.8720 321° Northwest 423 487 30,000  Level FlightAware ADS-B
Fri 05:57:02 AM 60.1810 25.7760 321° Northwest 423 487 30,000  Level FlightAware ADS-B
Fri 05:57:47 AM 60.2500 25.6620 321° Northwest 425 489 30,000  Level FlightAware ADS-B
Fri 05:58:22 AM 60.2960 25.5620 313° West 419 482 30,000  Level FlightAware ADS-B
Fri 05:59:10 AM 60.3710 25.4400 321° Northwest 426 490 30,000  Level FlightAware ADS-B
Fri 05:59:55 AM 60.4430 25.3430 326° Northwest 431 496 30,000  Level FlightAware ADS-B
Fri 06:00:34 AM 60.5090 25.2600 328° Northwest 434 499 30,000  Level FlightAware ADS-B
Fri 06:01:15 AM 60.5800 25.1730 329° Northwest 435 501 30,000  Level FlightAware ADS-B
Fri 06:01:57 AM 60.6510 25.0850 329° Northwest 434 499 30,000  Level FlightAware ADS-B
Fri 06:02:33 AM 60.7130 25.0070 328° Northwest 435 501 30,000  Level FlightAware ADS-B
Fri 06:03:12 AM 60.7820 24.9220 329° Northwest 435 501 30,000  Level FlightAware ADS-B
Fri 06:03:53 AM 60.8500 24.8350 328° Northwest 436 502 30,000  Level FlightAware ADS-B
Fri 06:04:41 AM 60.9330 24.7290 328° Northwest 438 504 30,000  Level FlightAware ADS-B
Fri 06:05:24 AM 61.0070 24.6350 328° Northwest 441 507 30,000  Level FlightAware ADS-B
Fri 06:06:10 AM 61.0840 24.5350 328° Northwest 443 510 30,000  Level FlightAware ADS-B
Fri 06:06:40 AM 61.1350 24.4700 328° Northwest 442 509 30,000  Level FlightAware ADS-B
Fri 06:07:22 AM 61.2080 24.3750 328° Northwest 442 509 30,000  Level FlightAware ADS-B
Fri 06:07:58 AM 61.2700 24.2940 328° Northwest 439 505 30,000  Level FlightAware ADS-B
Fri 06:08:38 AM 61.3380 24.2050 328° Northwest 435 501 30,000  Level FlightAware ADS-B
Fri 06:09:14 AM 61.4040 24.1180 328° Northwest 433 498 30,000  Level FlightAware ADS-B
Fri 06:09:58 AM 61.4760 24.0210 327° Northwest 430 495 30,000  Level FlightAware ADS-B
Fri 06:10:32 AM 61.5320 23.9480 328° Northwest 428 493 30,000  Level FlightAware ADS-B
Fri 06:11:02 AM 61.5840 23.8770 327° Northwest 429 494 30,000  Level FlightAware ADS-B
Fri 06:11:50 AM 61.6640 23.7690 327° Northwest 430 495 30,000  Level FlightAware ADS-B
Fri 06:12:42 AM 61.7520 23.6510 328° Northwest 431 496 30,000  Level FlightAware ADS-B
Fri 06:13:21 AM 61.8160 23.5640 327° Northwest 433 498 30,000  Level FlightAware ADS-B
Fri 06:13:50 AM 61.8650 23.4960 327° Northwest 433 498 30,000  Level FlightAware ADS-B
Fri 06:14:25 AM 61.9230 23.4170 327° Northwest 432 497 30,000  Level FlightAware ADS-B
Fri 06:14:57 AM 61.9770 23.3420 327° Northwest 432 497 30,000  Level FlightAware ADS-B
Fri 06:15:30 AM 62.0300 23.2680 327° Northwest 432 497 30,000  Level FlightAware ADS-B
Fri 06:16:14 AM 62.1060 23.1620 327° Northwest 433 498 30,000  Level FlightAware ADS-B
Fri 06:16:58 AM 62.1790 23.0600 327° Northwest 432 497 30,000  Level FlightAware ADS-B
Fri 06:17:58 AM 62.2800 22.9180 327° Northwest 432 497 30,000  Level FlightAware ADS-B
Fri 06:18:33 AM 62.3370 22.8350 326° Northwest 431 496 30,000  Level FlightAware ADS-B
Fri 06:19:07 AM 62.3860 22.7540 323° Northwest 430 495 30,000  Level FlightAware ADS-B
Fri 06:19:43 AM 62.4440 22.6490 320° Northwest 429 494 30,000  Level FlightAware ADS-B
Fri 06:20:23 AM 62.5050 22.5350 319° Northwest 430 495 30,000  Level FlightAware ADS-B
Fri 06:20:58 AM 62.5570 22.4370 319° Northwest 430 495 30,000  Level FlightAware ADS-B
Fri 06:21:35 AM 62.6130 22.3320 319° Northwest 430 495 30,000  Level FlightAware ADS-B
Fri 06:22:12 AM 62.6670 22.2290 319° Northwest 431 496 30,000  Level FlightAware ADS-B
Fri 06:22:43 AM 62.7120 22.1450 319° Northwest 431 496 30,000  Level FlightAware ADS-B
Fri 06:23:19 AM 62.7700 22.0360 319° Northwest 431 496 30,000  Level FlightAware ADS-B
Fri 06:24:10 AM 62.8410 21.9010 319° Northwest 432 497 30,000  Level FlightAware ADS-B
Fri 06:24:49 AM 62.9020 21.7830 319° Northwest 432 497 30,000  Level FlightAware ADS-B
Fri 06:26:02 AM 63.0130 21.5690 319° Northwest 432 497 30,000  Level FlightAware ADS-B
Fri 06:26:50 AM 63.0850 21.4290 319° Northwest 433 498 30,000  Level FlightAware ADS-B
Fri 06:27:30 AM 63.1460 21.3100 319° Northwest 434 499 30,000  Level FlightAware ADS-B
Fri 06:28:21 AM 63.2210 21.1600 318° Northwest 436 502 30,000  Level FlightAware ADS-B
Fri 06:29:02 AM 63.2820 21.0390 318° Northwest 436 502 30,000  Level FlightAware ADS-B
Fri 06:29:33 AM 63.3260 20.9510 318° Northwest 437 503 30,000  Level FlightAware ADS-B
Fri 06:30:18 AM 63.3970 20.8090 318° Northwest 437 503 30,000  Level FlightAware ADS-B
Fri 06:30:59 AM 63.4580 20.6860 318° Northwest 438 504 30,000  Level FlightAware ADS-B
Fri 06:31:38 AM 63.5170 20.5670 318° Northwest 438 504 30,000  Level FlightAware ADS-B
Fri 06:32:26 AM 63.5860 20.4260 318° Northwest 437 503 30,000  Level FlightAware ADS-B
Fri 06:33:07 AM 63.6470 20.2990 317° Northwest 437 503 30,000  Level FlightAware ADS-B
Fri 06:33:43 AM 63.7010 20.1890 318° Northwest 435 501 30,000  Level FlightAware ADS-B
Fri 06:34:16 AM 63.7490 20.0880 317° Northwest 435 501 30,000  Level FlightAware ADS-B
Fri 06:34:51 AM 63.8010 19.9800 318° Northwest 435 501 30,000  Level FlightAware ADS-B
Fri 06:35:36 AM 63.8680 19.8400 317° Northwest 428 493 30,000  Level FlightAware ADS-B
Fri 06:36:31 AM 63.9490 19.6690 317° Northwest 428 493 30,000  Level FlightAware ADS-B
Fri 06:37:12 AM 64.0080 19.5430 317° Northwest 427 491 30,000  Level FlightAware ADS-B
Fri 06:37:46 AM 64.0580 19.4360 317° Northwest 426 490 30,000  Level FlightAware ADS-B
Fri 06:38:31 AM 64.1230 19.2960 317° Northwest 425 489 30,000  Level FlightAware ADS-B
Fri 06:39:06 AM 64.1740 19.1850 317° Northwest 425 489 30,000  Level FlightAware ADS-B
Fri 06:39:42 AM 64.2250 19.0740 317° Northwest 425 489 30,000  Level FlightAware ADS-B
Fri 06:40:52 AM 64.3260 18.8530 317° Northwest 425 489 30,000  Level FlightAware ADS-B
Fri 06:41:37 AM 64.3900 18.7090 316° Northwest 427 491 30,000  Level FlightAware ADS-B
Fri 06:42:17 AM 64.4470 18.5810 316° Northwest 427 491 30,000  Level FlightAware ADS-B
Fri 06:43:27 AM 64.5480 18.3550 316° Northwest 432 497 30,000  Level FlightAware ADS-B
Fri 06:44:03 AM 64.6000 18.2370 316° Northwest 433 498 30,000  Level FlightAware ADS-B
Fri 06:44:23 AM 64.6260 18.1780 316° Northwest 434 499 30,000  Level FlightAware ADS-B
Fri 06:45:47 AM 64.7460 17.9010 316° Northwest 431 496 30,000  Level FlightAware ADS-B
Fri 06:46:37 AM 64.8210 17.7290 316° Northwest 438 504 30,000  Level FlightAware ADS-B
Fri 06:47:22 AM 64.8850 17.5770 315° West 433 498 30,000  Level FlightAware ADS-B
Fri 06:47:57 AM 64.9360 17.4590 316° Northwest 439 505 30,000  Level FlightAware ADS-B
Fri 06:48:37 AM 64.9930 17.3240 315° West 439 505 30,000  Level FlightAware ADS-B
Fri 06:49:12 AM 65.0430 17.2040 315° West 439 505 30,000  Level FlightAware ADS-B
Fri 06:50:02 AM 65.1130 17.0350 315° West 438 504 30,000  Level FlightAware ADS-B
Fri 06:51:07 AM 65.2060 16.8110 315° West 434 499 30,000  Level FlightAware ADS-B
Fri 06:51:42 AM 65.2540 16.6930 314° West 426 490 30,000  Level FlightAware ADS-B
Fri 06:52:17 AM 65.3030 16.5730 314° West 424 488 30,000 85 Level FlightAware ADS-B
Fri 06:52:53 AM 65.3510 16.4540 314° West 425 489 30,100 338 Climbing FlightAware ADS-B
Fri 06:53:28 AM 65.4000 16.3330 314° West 424 488 30,400 480 Climbing FlightAware ADS-B
Fri 06:54:08 AM 65.4550 16.1970 314° West 425 489 30,700 480 Climbing FlightAware ADS-B
Fri 06:54:43 AM 65.5030 16.0740 313° West 426 490 31,000 480 Climbing FlightAware ADS-B
Fri 06:55:23 AM 65.5580 15.9350 314° West 425 489 31,300 488 Climbing FlightAware ADS-B
Fri 06:56:09 AM 65.6190 15.7800 314° West 428 493 31,700 525 Climbing FlightAware ADS-B
Fri 06:56:43 AM 65.6660 15.6590 313° West 428 493 32,000 247 Climbing FlightAware ADS-B
Fri 06:57:22 AM 65.7200 15.5210 314° West 430 495 32,000  Level FlightAware ADS-B
Fri 06:57:57 AM 65.7680 15.3950 313° West 430 495 32,000  Level FlightAware ADS-B
Fri 06:58:32 AM 65.8160 15.2700 313° West 430 495 32,000  Level FlightAware ADS-B
Fri 06:59:19 AM 65.8770 15.1090 313° West 429 494 32,000  Level FlightAware ADS-B
Fri 06:59:52 AM 65.9260 14.9820 313° West 429 494 32,000  Level FlightAware ADS-B
Fri 07:00:27 AM 65.9730 14.8570 313° West 429 494 32,000  Level FlightAware ADS-B
Fri 07:01:02 AM 66.0190 14.7320 312° West 436 502 32,000  Level FlightAware ADS-B
Fri 07:01:37 AM 66.0680 14.6020 313° West 436 502 32,000  Level FlightAware ADS-B
Fri 07:02:17 AM 66.1220 14.4550 312° West 436 502 32,000  Level FlightAware ADS-B
Fri 07:02:57 AM 66.1750 14.3100 312° West 437 503 32,000  Level FlightAware ADS-B
Fri 07:03:43 AM 66.2350 14.1430 312° West 439 505 32,000  Level FlightAware ADS-B
Fri 07:04:23 AM 66.2910 13.9900 312° West 440 506 32,000  Level FlightAware ADS-B
Fri 07:04:58 AM 66.3390 13.8570 312° West 441 507 32,000  Level FlightAware ADS-B
Fri 07:05:47 AM 66.4050 13.6700 311° West 441 507 32,000  Level FlightAware ADS-B
Fri 07:06:56 AM 66.4990 13.4050 312° West 444 511 32,000  Level FlightAware ADS-B
Fri 07:07:42 AM 66.5600 13.2300 311° West 445 512 32,000  Level FlightAware ADS-B
Fri 07:08:23 AM 66.6150 13.0700 311° West 443 510 32,000  Level FlightAware ADS-B
Fri 07:09:01 AM 66.6670 12.9190 311° West 444 511 32,000  Level FlightAware ADS-B
Fri 07:09:32 AM 66.7080 12.8000 311° West 444 511 32,000  Level FlightAware ADS-B
Fri 07:10:09 AM 66.7570 12.6560 311° West 444 511 32,000  Level FlightAware ADS-B
Fri 07:10:46 AM 66.8060 12.5110 311° West 444 511 32,000  Level FlightAware ADS-B
Fri 07:11:40 AM 66.8790 12.2930 311° West 446 513 32,000  Level FlightAware ADS-B
Fri 07:12:23 AM 66.9350 12.1230 310° West 447 514 32,000  Level FlightAware ADS-B
Fri 07:13:06 AM 66.9930 11.9460 310° West 448 516 32,000  Level FlightAware ADS-B
Fri 07:13:35 AM 67.0310 11.8310 310° West 448 516 32,000  Level FlightAware ADS-B
Fri 07:14:20 AM 67.0910 11.6450 310° West 448 516 32,000  Level FlightAware ADS-B
Fri 07:15:04 AM 67.1490 11.4660 310° West 448 516 32,000  Level FlightAware ADS-B
Fri 07:15:34 AM 67.1890 11.3410 310° West 449 517 32,000  Level FlightAware ADS-B
Fri 07:16:17 AM 67.2440 11.1650 309° West 448 516 32,000  Level FlightAware ADS-B
Fri 07:16:50 AM 67.2870 11.0300 310° West 448 516 32,000  Level FlightAware ADS-B
Fri 07:17:25 AM 67.3310 10.8910 309° West 448 516 32,000  Level FlightAware ADS-B
Fri 07:18:02 AM 67.3810 10.7290 309° West 448 516 32,000  Level FlightAware ADS-B
Fri 07:18:40 AM 67.4260 10.5840 309° West 448 516 32,000  Level FlightAware ADS-B
Fri 07:19:19 AM 67.4680 10.4430 308° West 448 516 32,000  Level FlightAware ADS-B
Fri 07:20:05 AM 67.5180 10.2760 308° West 448 516 32,000  Level FlightAware ADS-B
Fri 07:20:41 AM 67.5570 10.1450 308° West 448 516 32,000  Level FlightAware ADS-B
Fri 07:21:29 AM 67.6090 9.9700 308° West 448 516 32,000  Level FlightAware ADS-B
Fri 07:21:53 AM 67.6350 9.8830 308° West 448 516 32,000  Level FlightAware ADS-B
Fri 07:22:41 AM 67.6870 9.7070 308° West 448 516 32,000  Level FlightAware ADS-B
Fri 07:23:41 AM 67.7520 9.4870 308° West 448 516 32,000  Level FlightAware ADS-B
Fri 07:24:29 AM 67.8040 9.3110 308° West 448 516 32,000  Level FlightAware ADS-B
Fri 07:25:05 AM 67.8430 9.1790 308° West 448 516 32,000  Level FlightAware ADS-B
Fri 07:25:53 AM 67.8950 9.0020 308° West 448 516 32,000  Level FlightAware ADS-B
Fri 07:26:17 AM 67.9210 8.9130 308° West 448 516 32,000  Level FlightAware ADS-B
Fri 07:27:05 AM 67.9730 8.7360 308° West 448 516 32,000  Level FlightAware ADS-B
Fri 07:27:41 AM 68.0120 8.6020 308° West 448 516 32,000  Level FlightAware ADS-B
Fri 07:28:17 AM 68.0510 8.4690 308° West 448 516 32,000  Level FlightAware ADS-B
Fri 07:31:00 AM 68.1011 7.6609 280° West  Level Estimated
Fri 07:32:00 AM 68.1186 7.3626 279° West  Level Estimated
Fri 07:33:00 AM 68.1355 7.0638 279° West  Level Estimated
Fri 07:34:00 AM 68.1518 6.7647 279° West  Level Estimated
Fri 07:35:00 AM 68.1677 6.4651 278° West  Level Estimated
Fri 07:36:00 AM 68.1830 6.1650 278° West  Level Estimated
Fri 07:37:00 AM 68.1977 5.8646 278° West  Level Estimated
Fri 07:38:00 AM 68.2119 5.5638 277° West  Level Estimated
Fri 07:39:00 AM 68.2256 5.2627 277° West  Level Estimated
Fri 07:40:00 AM 68.2387 4.9612 277° West  Level Estimated
Fri 07:41:00 AM 68.2513 4.6593 277° West  Level Estimated
Fri 07:42:00 AM 68.2633 4.3571 276° West  Level Estimated
Fri 07:43:00 AM 68.2747 4.0546 276° West  Level Estimated
Fri 07:44:00 AM 68.2857 3.7519 276° West  Level Estimated
Fri 07:45:00 AM 68.2960 3.4488 275° West  Level Estimated
Fri 07:46:00 AM 68.3058 3.1455 275° West  Level Estimated
Fri 07:47:00 AM 68.3151 2.8419 275° West  Level Estimated
Fri 07:48:00 AM 68.3238 2.5380 275° West  Level Estimated
Fri 07:49:00 AM 68.3320 2.2340 274° West  Level Estimated
Fri 07:50:00 AM 68.3396 1.9297 274° West  Level Estimated
Fri 07:51:00 AM 68.3466 1.6253 274° West  Level Estimated
Fri 07:52:00 AM 68.3531 1.3206 273° West  Level Estimated
Fri 07:53:00 AM 68.3591 1.0158 273° West  Level Estimated
Fri 07:54:00 AM 68.3645 0.7109 273° West  Level Estimated
Fri 07:55:00 AM 68.3693 0.4058 273° West  Level Estimated
Fri 07:56:00 AM 68.3736 0.1005 272° West  Level Estimated
Fri 07:57:00 AM 68.3773 -0.2048 272° West  Level Estimated
Fri 07:58:00 AM 68.3804 -0.5102 272° West  Level Estimated
Fri 07:59:00 AM 68.3830 -0.8157 271° West  Level Estimated
Fri 08:00:00 AM 68.3851 -1.1213 271° West  Level Estimated
Fri 08:01:00 AM 68.3866 -1.4269 271° West  Level Estimated
Fri 08:02:00 AM 68.3875 -1.7325 271° West  Level Estimated
Fri 08:03:00 AM 68.3878 -2.0382 270° West  Level Estimated
Fri 08:04:00 AM 68.3876 -2.3438 270° West  Level Estimated
Fri 08:05:00 AM 68.3869 -2.6495 270° West  Level Estimated
Fri 08:06:00 AM 68.3856 -2.9551 269° West  Level Estimated
Fri 08:07:00 AM 68.3837 -3.2607 269° West  Level Estimated
Fri 08:08:00 AM 68.3813 -3.5662 269° West  Level Estimated
Fri 08:09:00 AM 68.3783 -3.8716 269° West  Level Estimated
Fri 08:10:00 AM 68.3748 -4.1770 268° West  Level Estimated
Fri 08:11:00 AM 68.3707 -4.4822 268° West  Level Estimated
Fri 08:12:00 AM 68.3660 -4.7874 268° West  Level Estimated
Fri 08:13:00 AM 68.3608 -5.0924 267° West  Level Estimated
Fri 08:14:00 AM 68.3550 -5.3972 267° West  Level Estimated
Fri 08:15:00 AM 68.3487 -5.7019 267° West  Level Estimated
Fri 08:16:00 AM 68.3418 -6.0065 267° West  Level Estimated
Fri 08:17:00 AM 68.3344 -6.3108 266° West  Level Estimated
Fri 08:18:00 AM 68.3264 -6.6149 266° West  Level Estimated
Fri 08:19:00 AM 68.3179 -6.9188 266° West  Level Estimated
Fri 08:20:00 AM 68.3088 -7.2225 266° West  Level Estimated
Fri 08:21:00 AM 68.2991 -7.5259 265° West  Level Estimated
Fri 08:22:00 AM 68.2889 -7.8290 265° West  Level Estimated
Fri 08:23:00 AM 68.2782 -8.1319 265° West  Level Estimated
Fri 08:24:00 AM 68.2669 -8.4345 264° West  Level Estimated
Fri 08:25:00 AM 68.2550 -8.7367 264° West  Level Estimated
Fri 08:26:00 AM 68.2426 -9.0387 264° West  Level Estimated
Fri 08:27:00 AM 68.2297 -9.3403 264° West  Level Estimated
Fri 08:28:00 AM 68.2162 -9.6416 263° West  Level Estimated
Fri 08:29:00 AM 68.2021 -9.9425 263° West  Level Estimated
Fri 08:30:00 AM 68.1876 -10.2430 263° West  Level Estimated
Fri 08:31:00 AM 68.1724 -10.5432 262° West  Level Estimated
Fri 08:32:00 AM 68.1568 -10.8429 262° West  Level Estimated
Fri 08:33:00 AM 68.1406 -11.1422 262° West  Level Estimated
Fri 08:34:00 AM 68.1238 -11.4411 262° West  Level Estimated
Fri 08:35:00 AM 68.1065 -11.7396 261° West  Level Estimated
Fri 08:36:00 AM 68.0887 -12.0376 261° West  Level Estimated
Fri 08:37:00 AM 68.0704 -12.3351 261° West  Level Estimated
Fri 08:38:00 AM 68.0515 -12.6321 260° West  Level Estimated
Fri 08:39:00 AM 68.0320 -12.9287 260° West  Level Estimated
Fri 08:40:00 AM 68.0121 -13.2248 260° West  Level Estimated
Fri 08:41:00 AM 67.9916 -13.5203 260° West  Level Estimated
Fri 08:42:00 AM 67.9706 -13.8153 259° West  Level Estimated
Fri 08:43:00 AM 67.9490 -14.1098 259° West  Level Estimated
Fri 08:44:00 AM 67.9270 -14.4037 259° West  Level Estimated
Fri 08:45:00 AM 67.9044 -14.6970 259° West  Level Estimated
Fri 08:46:00 AM 67.8813 -14.9898 258° West  Level Estimated
Fri 08:47:00 AM 67.8576 -15.2820 258° West  Level Estimated
Fri 08:48:00 AM 67.8335 -15.5736 258° West  Level Estimated
Fri 08:49:00 AM 67.8088 -15.8646 257° West  Level Estimated
Fri 08:50:00 AM 67.7836 -16.1549 257° West  Level Estimated
Fri 08:51:00 AM 67.7579 -16.4447 257° West  Level Estimated
Fri 08:52:00 AM 67.7317 -16.7337 257° West  Level Estimated
Fri 08:53:00 AM 67.7050 -17.0222 256° West  Level Estimated
Fri 08:54:00 AM 67.6777 -17.3100 256° West  Level Estimated
Fri 08:55:00 AM 67.6500 -17.5971 256° West  Level Estimated
Fri 08:56:00 AM 67.6218 -17.8835 256° West  Level Estimated
Fri 08:57:00 AM 67.5930 -18.1692 255° West  Level Estimated
Fri 08:58:00 AM 67.5638 -18.4542 255° West  Level Estimated
Fri 08:59:00 AM 67.5340 -18.7386 255° West  Level Estimated
Fri 09:00:00 AM 67.5038 -19.0222 255° West  Level Estimated
Fri 09:01:00 AM 67.4730 -19.3050 254° West  Level Estimated
Fri 09:02:00 AM 67.4418 -19.5872 254° West  Level Estimated
Fri 09:03:00 AM 67.4101 -19.8686 254° West  Level Estimated
Fri 09:04:00 AM 67.3779 -20.1492 254° West  Level Estimated
Fri 09:05:00 AM 67.3452 -20.4291 253° West  Level Estimated
Fri 09:06:00 AM 67.3120 -20.7082 253° West  Level Estimated
Fri 09:07:00 AM 67.2783 -20.9865 253° West  Level Estimated
Fri 09:08:00 AM 67.2442 -21.2640 252° West  Level Estimated
Fri 09:09:00 AM 67.2096 -21.5408 252° West  Level Estimated
Fri 09:10:00 AM 67.1745 -21.8167 252° West  Level Estimated
Fri 09:11:00 AM 67.1389 -22.0919 252° West  Level Estimated
Fri 09:12:00 AM 67.1028 -22.3662 251° West  Level Estimated
Fri 09:13:00 AM 67.0663 -22.6397 251° West  Level Estimated
Fri 09:14:00 AM 67.0294 -22.9124 251° West  Level Estimated
Fri 09:15:00 AM 66.9919 -23.1842 251° West  Level Estimated
Fri 09:16:00 AM 66.9540 -23.4552 250° West  Level Estimated
Fri 09:17:00 AM 66.9156 -23.7254 250° West  Level Estimated
Fri 09:18:00 AM 66.8768 -23.9947 250° West  Level Estimated
Fri 09:19:00 AM 66.8375 -24.2631 250° West  Level Estimated
Fri 09:20:00 AM 66.7978 -24.5307 249° West  Level Estimated
Fri 09:21:00 AM 66.7576 -24.7974 249° West  Level Estimated
Fri 09:22:00 AM 66.7169 -25.0632 249° West  Level Estimated
Fri 09:23:00 AM 66.6759 -25.3282 249° West  Level Estimated
Fri 09:24:00 AM 66.6343 -25.5923 248° West  Level Estimated
Fri 09:25:00 AM 66.5924 -25.8555 248° West  Level Estimated
Fri 09:26:00 AM 66.5499 -26.1178 248° West  Level Estimated
Fri 09:27:00 AM 66.5071 -26.3791 248° West  Level Estimated
Fri 09:28:00 AM 66.4638 -26.6396 248° West  Level Estimated
Fri 09:29:00 AM 66.4201 -26.8992 247° West  Level Estimated
Fri 09:30:00 AM 66.3760 -27.1579 247° West  Level Estimated
Fri 09:31:00 AM 66.3314 -27.4156 247° West  Level Estimated
Fri 09:32:00 AM 66.2864 -27.6725 247° West  Level Estimated
Fri 09:33:00 AM 66.2410 -27.9284 246° West  Level Estimated
Fri 09:34:00 AM 66.1952 -28.1834 246° West  Level Estimated
Fri 09:35:00 AM 66.1489 -28.4375 246° West  Level Estimated
Fri 09:36:00 AM 66.1023 -28.6906 246° West  Level Estimated
Fri 09:37:00 AM 66.0552 -28.9428 245° Southwest  Level Estimated
Fri 09:38:00 AM 66.0077 -29.1941 245° Southwest  Level Estimated
Fri 09:39:00 AM 65.9598 -29.4444 245° Southwest  Level Estimated
Fri 09:40:00 AM 65.9115 -29.6938 245° Southwest  Level Estimated
Fri 09:41:00 AM 65.8628 -29.9422 244° Southwest  Level Estimated
Fri 09:42:00 AM 65.8137 -30.1897 244° Southwest  Level Estimated
Fri 09:43:00 AM 65.7642 -30.4363 244° Southwest  Level Estimated
Fri 09:44:00 AM 65.7143 -30.6819 244° Southwest  Level Estimated
Fri 09:45:00 AM 65.6640 -30.9266 244° Southwest  Level Estimated
Fri 09:46:00 AM 65.6133 -31.1703 243° Southwest  Level Estimated
Fri 09:47:00 AM 65.5622 -31.4130 243° Southwest  Level Estimated
Fri 09:48:00 AM 65.5108 -31.6548 243° Southwest  Level Estimated
Fri 09:49:00 AM 65.4589 -31.8957 243° Southwest  Level Estimated
Fri 09:50:00 AM 65.4067 -32.1356 242° Southwest  Level Estimated
Fri 09:51:00 AM 65.3541 -32.3745 242° Southwest  Level Estimated
Fri 09:52:00 AM 65.3011 -32.6125 242° Southwest  Level Estimated
Fri 09:53:00 AM 65.2478 -32.8495 242° Southwest  Level Estimated
Fri 09:54:00 AM 65.1941 -33.0855 242° Southwest  Level Estimated
Fri 09:55:00 AM 65.1400 -33.3206 241° Southwest  Level Estimated
Fri 09:56:00 AM 65.0855 -33.5548 241° Southwest  Level Estimated
Fri 09:57:00 AM 65.0307 -33.7879 241° Southwest  Level Estimated
Fri 09:58:00 AM 64.9755 -34.0202 241° Southwest  Level Estimated
Fri 09:59:00 AM 64.9200 -34.2514 241° Southwest  Level Estimated
Fri 10:00:00 AM 64.8641 -34.4817 240° Southwest  Level Estimated
Fri 10:01:00 AM 64.8078 -34.7111 240° Southwest  Level Estimated
Fri 10:02:00 AM 64.7512 -34.9394 240° Southwest  Level Estimated
Fri 10:03:00 AM 64.6942 -35.1669 240° Southwest  Level Estimated
Fri 10:04:00 AM 64.6369 -35.3933 240° Southwest  Level Estimated
Fri 10:05:00 AM 64.5793 -35.6189 239° Southwest  Level Estimated
Fri 10:06:00 AM 64.5213 -35.8434 239° Southwest  Level Estimated
Fri 10:07:00 AM 64.4630 -36.0670 239° Southwest  Level Estimated
Fri 10:08:00 AM 64.4043 -36.2897 239° Southwest  Level Estimated
Fri 10:09:00 AM 64.3453 -36.5114 238° Southwest  Level Estimated
Fri 10:10:00 AM 64.2859 -36.7321 238° Southwest  Level Estimated
Fri 10:11:00 AM 64.2263 -36.9519 238° Southwest  Level Estimated
Fri 10:12:00 AM 64.1663 -37.1707 238° Southwest  Level Estimated
Fri 10:13:00 AM 64.1059 -37.3886 238° Southwest  Level Estimated
Fri 10:14:00 AM 64.0453 -37.6056 238° Southwest  Level Estimated
Fri 10:15:00 AM 63.9843 -37.8216 237° Southwest  Level Estimated
Fri 10:15:43 AM 67.3570 -44.7100 237° Southwest 437 503 32,000  Level FlightAware ADS-B
Fri 10:16:00 AM 63.9230 -38.0367 237° Southwest  Level Estimated
Fri 10:16:35 AM 67.2820 -44.9010 225° Southwest 437 503 32,000  Level FlightAware ADS-B
Fri 10:17:14 AM 67.2340 -45.0210 224° Southwest 437 503 32,000  Level FlightAware ADS-B
Fri 10:17:51 AM 67.1880 -45.1350 224° Southwest 437 503 32,000  Level FlightAware ADS-B
Fri 10:18:40 AM 67.1270 -45.2860 224° Southwest 437 503 32,000  Level FlightAware ADS-B
Fri 10:19:37 AM 67.0160 -45.5650 225° Southwest 441 507 32,000  Level FlightAware ADS-B
Fri 10:20:16 AM 66.9630 -45.6950 224° Southwest 442 509 32,000  Level FlightAware ADS-B
Fri 10:20:53 AM 66.9050 -45.8370 224° Southwest 442 509 32,000  Level FlightAware ADS-B
Fri 10:21:32 AM 66.8460 -45.9800 224° Southwest 442 509 32,000  Level FlightAware ADS-B
Fri 10:22:05 AM 66.7980 -46.0950 223° Southwest 442 509 32,000  Level FlightAware ADS-B
Fri 10:23:00 AM 66.7150 -46.2920 223° Southwest 444 511 32,000  Level FlightAware ADS-B
Fri 10:23:51 AM 66.6400 -46.4710 223° Southwest 444 511 32,000  Level FlightAware ADS-B
Fri 10:24:03 AM 66.6250 -46.5060 223° Southwest 444 511 32,000  Level FlightAware ADS-B
Fri 10:24:55 AM 66.5570 -46.6590 222° Southwest 444 511 32,000  Level FlightAware ADS-B
Fri 10:25:31 AM 66.5100 -46.7650 222° Southwest 444 511 32,000  Level FlightAware ADS-B
Fri 10:25:55 AM 66.4790 -46.8350 222° Southwest 444 511 32,000  Level FlightAware ADS-B
Fri 10:26:45 AM 66.4140 -46.9810 222° Southwest 444 511 32,000  Level FlightAware ADS-B
Fri 10:27:23 AM 66.3650 -47.0920 222° Southwest 444 511 32,000  Level FlightAware ADS-B
Fri 10:28:11 AM 66.3030 -47.2320 222° Southwest 444 511 32,000  Level FlightAware ADS-B
Fri 10:28:45 AM 66.2590 -47.3300 222° Southwest 444 511 32,000  Level FlightAware ADS-B
Fri 10:29:33 AM 66.1960 -47.4700 222° Southwest 444 511 32,000  Level FlightAware ADS-B
Fri 10:29:57 AM 66.1650 -47.5390 222° Southwest 444 511 32,000  Level FlightAware ADS-B
Fri 10:30:36 AM 66.1140 -47.6520 222° Southwest 444 511 32,000  Level FlightAware ADS-B
Fri 10:31:11 AM 66.0690 -47.7520 222° Southwest 444 511 32,000  Level FlightAware ADS-B
Fri 10:31:59 AM 66.0070 -47.8900 222° Southwest 444 511 32,000  Level FlightAware ADS-B
Fri 10:32:35 AM 65.9600 -47.9940 222° Southwest 444 511 32,000  Level FlightAware ADS-B
Fri 10:33:12 AM 65.9120 -48.1000 222° Southwest 444 511 32,000  Level FlightAware ADS-B
Fri 10:34:01 AM 65.8480 -48.2400 222° Southwest 444 511 32,000  Level FlightAware ADS-B
Fri 10:36:00 AM 65.6828 -48.6263 224° Southwest  Level Estimated
Fri 10:37:00 AM 65.5992 -48.8193 224° Southwest  Level Estimated
Fri 10:38:00 AM 65.5153 -49.0110 223° Southwest  Level Estimated
Fri 10:39:00 AM 65.4312 -49.2014 223° Southwest  Level Estimated
Fri 10:40:00 AM 65.3468 -49.3907 223° Southwest  Level Estimated
Fri 10:41:00 AM 65.2622 -49.5787 223° Southwest  Level Estimated
Fri 10:42:00 AM 65.1774 -49.7655 223° Southwest  Level Estimated
Fri 10:43:00 AM 65.0923 -49.9511 223° Southwest  Level Estimated
Fri 10:44:00 AM 65.0070 -50.1356 222° Southwest  Level Estimated
Fri 10:45:00 AM 64.9215 -50.3188 222° Southwest  Level Estimated
Fri 10:46:00 AM 64.8357 -50.5009 222° Southwest  Level Estimated
Fri 10:46:25 AM 64.6730 -51.3320 222° Southwest 459 528 32,000  Level FlightAware ADS-B
Fri 10:47:09 AM 64.6260 -51.5200 240° Southwest 460 529 32,000  Level FlightAware ADS-B
Fri 10:47:58 AM 64.5720 -51.7280 239° Southwest 460 529 32,000  Level FlightAware ADS-B
Fri 10:48:31 AM 64.5360 -51.8670 239° Southwest 460 529 32,000  Level FlightAware ADS-B
Fri 10:49:36 AM 64.4660 -52.1400 239° Southwest 460 529 32,000  Level FlightAware ADS-B
Fri 10:50:09 AM 64.4300 -52.2760 239° Southwest 461 531 32,000  Level FlightAware ADS-B
Fri 10:50:54 AM 64.3800 -52.4630 238° Southwest 462 532 32,000  Level FlightAware ADS-B
Fri 10:52:11 AM 64.2920 -52.7920 238° Southwest 462 532 32,000  Level FlightAware ADS-B
Fri 10:52:34 AM 64.2680 -52.8790 238° Southwest 463 533 32,000  Level FlightAware ADS-B
Fri 10:53:16 AM 64.2280 -53.0280 238° Southwest 463 533 32,000  Level FlightAware ADS-B
Fri 10:53:52 AM 64.1930 -53.1560 238° Southwest 463 533 32,000  Level FlightAware ADS-B
Fri 10:54:29 AM 64.1570 -53.2870 238° Southwest 463 533 32,000  Level FlightAware ADS-B
Fri 10:55:05 AM 64.1230 -53.4150 239° Southwest 463 533 32,000  Level FlightAware ADS-B
Fri 10:55:39 AM 64.0900 -53.5350 238° Southwest 463 533 32,000  Level FlightAware ADS-B
Fri 10:56:15 AM 64.0550 -53.6620 238° Southwest 463 533 32,000  Level FlightAware ADS-B
Fri 10:57:03 AM 64.0090 -53.8310 238° Southwest 463 533 32,000  Level FlightAware ADS-B
Fri 10:57:39 AM 63.9740 -53.9580 238° Southwest 463 533 32,000  Level FlightAware ADS-B
Fri 10:58:15 AM 63.9390 -54.0840 238° Southwest 463 533 32,000  Level FlightAware ADS-B
Fri 10:59:16 AM 63.8800 -54.2990 238° Southwest 463 533 32,000  Level FlightAware ADS-B
Fri 10:59:53 AM 63.8450 -54.4280 238° Southwest 463 533 32,000  Level FlightAware ADS-B
Fri 11:00:29 AM 63.8100 -54.5540 238° Southwest 463 533 32,000  Level FlightAware ADS-B
Fri 11:01:06 AM 63.7740 -54.6840 238° Southwest 463 533 32,000  Level FlightAware ADS-B
Fri 11:01:40 AM 63.7410 -54.8020 238° Southwest 463 533 32,000  Level FlightAware ADS-B
Fri 11:02:17 AM 63.7060 -54.9310 239° Southwest 463 533 32,000  Level FlightAware ADS-B
Fri 11:02:29 AM 63.6940 -54.9730 237° Southwest 463 533 32,000  Level FlightAware ADS-B
Fri 11:05:00 AM 63.4619 -55.3659 217° Southwest  Level Estimated
Fri 11:06:00 AM 63.3694 -55.5203 217° Southwest  Level Estimated
Fri 11:07:00 AM 63.2768 -55.6737 217° Southwest  Level Estimated
Fri 11:08:00 AM 63.1792 -55.8338 217° Southwest  Level Estimated
Fri 11:09:00 AM 63.0815 -55.9928 216° Southwest  Level Estimated
Fri 11:10:00 AM 62.9836 -56.1507 216° Southwest  Level Estimated
Fri 11:11:00 AM 62.8856 -56.3076 216° Southwest  Level Estimated
Fri 11:11:56 AM 62.9500 -57.2833 215° Southwest 440 506 32,000  Level Gander Center
Fri 11:12:00 AM 62.7873 -56.4635 216° Southwest  Level Estimated
Fri 11:12:56 AM 62.8667 -57.5000 230° Southwest 440 506 32,000  Level Gander Center
Fri 11:13:00 AM 62.6889 -56.6183 216° Southwest  Level Estimated
Fri 11:14:00 AM 62.5903 -56.7721 216° Southwest  Level Estimated
Fri 11:14:16 AM 62.7674 -57.7751 233° Southwest  Level FlightAware Approximate
Fri 11:15:00 AM 62.4915 -56.9249 216° Southwest  Level Estimated
Fri 11:16:00 AM 62.3926 -57.0766 215° Southwest  Level Estimated
Fri 11:17:00 AM 62.2935 -57.2274 215° Southwest  Level Estimated
Fri 11:21:00 AM 62.2744 -59.1667 233° Southwest  Level FlightAware Approximate
Fri 11:21:47 AM 62.2167 -59.3000 231° Southwest 350 403 32,000  Level Montreal Center
Fri 11:22:00 AM 62.2000 -59.3695 232° Southwest  Level FlightAware Approximate
Fri 11:22:47 AM 62.1333 -59.4833 226° Southwest 430 495 32,000  Level Montreal Center
Fri 11:23:00 AM 62.1253 -59.5713 232° Southwest  Level FlightAware Approximate
Fri 11:23:47 AM 62.0833 -59.7000 244° Southwest 440 506 32,000  Level Montreal Center
Fri 11:24:00 AM 62.0504 -59.7720 232° Southwest  Level FlightAware Approximate
Fri 11:24:47 AM 62.0000 -59.9333 233° Southwest 430 495 32,000  Level Montreal Center
Fri 11:25:00 AM 61.9751 -59.9718 231° Southwest  Level FlightAware Approximate
Fri 11:25:47 AM 61.9167 -60.0833 220° Southwest 440 506 32,600  Level Montreal Center
Fri 11:26:00 AM 61.8995 -60.1707 231° Southwest  Level FlightAware Approximate
Fri 11:26:47 AM 61.8333 -60.3000 231° Southwest 440 506 33,300  Level Montreal Center
Fri 11:27:47 AM 61.7500 -60.4833 226° Southwest 440 506 34,000 350 Climbing Montreal Center
Fri 11:28:47 AM 61.6833 -60.6667 233° Southwest 430 495 34,000  Level Montreal Center
Fri 11:29:47 AM 61.6167 -60.8833 237° Southwest 440 506 34,000  Level Montreal Center
Fri 11:30:47 AM 61.5333 -61.1000 231° Southwest 430 495 34,000  Level Montreal Center
Fri 11:31:47 AM 61.4667 -61.2667 230° Southwest 430 495 34,000  Level Montreal Center
Fri 11:32:53 AM 61.3667 -61.5667 235° Southwest 430 495 34,000  Level Gander Center
Fri 11:33:47 AM 61.3000 -61.6667 216° Southwest 430 495 34,000  Level Montreal Center
Fri 11:34:47 AM 61.2333 -61.8333 230° Southwest 430 495 34,000  Level Montreal Center
Fri 11:35:47 AM 61.1500 -62.0167 227° Southwest 430 495 34,000  Level Montreal Center
Fri 11:36:47 AM 61.0667 -62.2000 227° Southwest 420 483 34,000  Level Montreal Center
Fri 11:37:47 AM 61.0000 -62.4000 236° Southwest 430 495 34,000  Level Montreal Center
Fri 11:38:47 AM 60.9167 -62.5667 224° Southwest 430 495 34,000  Level Montreal Center
Fri 11:39:47 AM 60.8333 -62.7833 232° Southwest 420 483 34,000  Level Montreal Center
Fri 11:40:47 AM 60.7667 -62.9833 236° Southwest 420 483 34,000  Level Montreal Center
Fri 11:41:47 AM 60.6833 -63.1500 224° Southwest 420 483 34,000  Level Montreal Center
Fri 11:42:47 AM 60.6000 -63.3333 227° Southwest 430 495 34,000  Level Montreal Center
Fri 11:43:47 AM 60.5333 -63.5000 231° Southwest 430 495 34,000  Level Montreal Center
Fri 11:44:47 AM 60.4500 -63.7000 230° Southwest 430 495 34,000  Level Montreal Center
Fri 11:45:47 AM 60.3500 -63.8667 220° Southwest 430 495 34,000  Level Montreal Center
Fri 11:46:47 AM 60.2833 -64.0333 231° Southwest 430 495 34,000  Level Montreal Center
Fri 11:47:47 AM 60.2000 -64.2333 230° Southwest 430 495 34,000  Level Montreal Center
Fri 11:48:47 AM 60.1167 -64.4000 225° Southwest 430 495 34,000  Level Montreal Center
Fri 11:49:47 AM 60.0500 -64.5833 234° Southwest 430 495 34,000  Level Montreal Center
Fri 11:50:47 AM 59.9500 -64.7500 220° Southwest 430 495 34,000  Level Montreal Center
Fri 11:51:47 AM 59.8667 -64.9167 225° Southwest 430 495 34,000  Level Montreal Center
Fri 11:52:47 AM 59.7833 -65.1167 230° Southwest 430 495 34,000  Level Montreal Center
Fri 11:53:47 AM 59.7000 -65.2833 225° Southwest 430 495 34,000  Level Montreal Center
Fri 11:54:47 AM 59.6167 -65.4667 228° Southwest 430 495 34,000  Level Montreal Center
Fri 11:55:47 AM 59.5333 -65.6333 225° Southwest 430 495 34,000  Level Montreal Center
Fri 11:56:47 AM 59.4500 -65.7833 222° Southwest 430 495 34,000  Level Montreal Center
Fri 11:57:47 AM 59.3833 -65.9833 237° Southwest 430 495 34,000  Level Montreal Center
Fri 11:58:47 AM 59.2833 -66.1333 217° Southwest 430 495 34,000  Level Montreal Center
Fri 11:59:47 AM 59.2000 -66.3000 226° Southwest 430 495 34,000  Level Montreal Center
Fri 12:00:47 PM 59.1000 -66.4833 223° Southwest 430 495 34,000  Level Montreal Center
Fri 12:01:47 PM 59.0333 -66.6333 229° Southwest 430 495 34,000  Level Montreal Center
Fri 12:02:47 PM 58.9500 -66.8167 229° Southwest 430 495 34,000  Level Montreal Center
Fri 12:03:47 PM 58.8500 -66.9667 218° Southwest 430 495 34,000  Level Montreal Center
Fri 12:04:47 PM 58.7833 -67.1167 229° Southwest 430 495 34,000  Level Montreal Center
Fri 12:05:47 PM 58.6667 -67.3167 222° Southwest 430 495 34,000  Level Montreal Center
Fri 12:06:47 PM 58.6000 -67.4667 230° Southwest 430 495 34,000  Level Montreal Center
Fri 12:07:47 PM 58.5167 -67.6500 229° Southwest 440 506 34,000  Level Montreal Center
Fri 12:08:47 PM 58.4167 -67.8000 218° Southwest 440 506 34,000  Level Montreal Center
Fri 12:09:47 PM 58.3333 -67.9833 229° Southwest 440 506 34,000  Level Montreal Center
Fri 12:10:47 PM 58.2500 -68.1167 220° Southwest 440 506 34,000  Level Montreal Center
Fri 12:11:47 PM 58.1667 -68.3000 229° Southwest 450 518 34,000  Level Montreal Center
Fri 12:13:08 PM 58.0333 -68.4833 216° Southwest 450 518 34,000  Level Montreal Center
Fri 12:14:08 PM 57.9500 -68.6333 224° Southwest 440 506 34,000  Level Montreal Center
Fri 12:15:08 PM 57.8333 -68.7500 208° Southwest 440 506 34,000  Level Montreal Center
Fri 12:16:08 PM 57.7333 -68.9000 219° Southwest 440 506 34,000  Level Montreal Center
Fri 12:17:08 PM 57.6500 -69.0000 213° Southwest 440 506 34,000  Level Montreal Center
Fri 12:18:08 PM 57.5500 -69.1500 219° Southwest 440 506 34,000  Level Montreal Center
Fri 12:19:09 PM 57.4333 -69.3000 215° Southwest 440 506 34,000  Level Montreal Center
Fri 12:20:09 PM 57.3500 -69.4000 213° Southwest 440 506 34,000  Level Montreal Center
Fri 12:21:09 PM 57.2333 -69.5500 215° Southwest 440 506 34,000  Level Montreal Center
Fri 12:22:09 PM 57.1333 -69.7000 219° Southwest 440 506 34,000  Level Montreal Center
Fri 12:23:09 PM 57.0500 -69.8333 221° Southwest 440 506 34,000  Level Montreal Center
Fri 12:24:09 PM 56.9333 -69.9500 209° Southwest 440 506 34,000  Level Montreal Center
Fri 12:25:09 PM 56.8333 -70.0833 216° Southwest 440 506 34,000  Level Montreal Center
Fri 12:26:09 PM 56.7500 -70.2167 221° Southwest 440 506 34,000  Level Montreal Center
Fri 12:27:09 PM 56.6333 -70.3333 209° Southwest 440 506 34,000  Level Montreal Center
Fri 12:28:09 PM 56.5333 -70.4667 216° Southwest 440 506 34,000  Level Montreal Center
Fri 12:29:09 PM 56.4333 -70.6000 216° Southwest 440 506 34,000  Level Montreal Center
Fri 12:30:09 PM 56.3333 -70.7000 209° Southwest 440 506 34,000  Level Montreal Center
Fri 12:31:09 PM 56.2333 -70.8500 220° Southwest 440 506 34,000  Level Montreal Center
Fri 12:32:09 PM 56.1167 -70.9833 213° Southwest 440 506 34,000  Level Montreal Center
Fri 12:33:09 PM 56.0167 -71.0833 209° Southwest 450 518 34,000  Level Montreal Center
Fri 12:34:09 PM 55.9167 -71.2167 217° Southwest 440 506 34,000  Level Montreal Center
Fri 12:35:09 PM 55.8167 -71.3500 217° Southwest 450 518 34,000  Level Montreal Center
Fri 12:36:09 PM 55.7167 -71.4500 209° Southwest 440 506 34,000  Level Montreal Center
Fri 12:37:09 PM 55.6000 -71.5833 213° Southwest 440 506 34,000  Level Montreal Center
Fri 12:38:09 PM 55.5000 -71.7167 217° Southwest 450 518 34,000  Level Montreal Center
Fri 12:39:09 PM 55.4000 -71.8167 210° Southwest 450 518 34,000  Level Montreal Center
Fri 12:40:09 PM 55.3000 -71.9333 214° Southwest 450 518 34,000  Level Montreal Center
Fri 12:41:09 PM 55.2000 -72.0667 217° Southwest 440 506 34,000  Level Montreal Center
Fri 12:42:09 PM 55.0833 -72.2000 213° Southwest 450 518 34,000  Level Montreal Center
Fri 12:43:09 PM 54.9833 -72.3000 210° Southwest 450 518 34,000  Level Montreal Center
Fri 12:44:09 PM 54.8667 -72.4167 210° Southwest 440 506 34,000  Level Montreal Center
Fri 12:45:09 PM 54.7667 -72.5500 218° Southwest 450 518 34,000  Level Montreal Center
Fri 12:46:09 PM 54.6667 -72.6667 214° Southwest 440 506 34,000  Level Montreal Center
Fri 12:47:09 PM 54.5667 -72.7667 210° Southwest 450 518 34,000  Level Montreal Center
Fri 12:48:09 PM 54.4667 -72.9000 218° Southwest 440 506 34,000  Level Montreal Center
Fri 12:49:09 PM 54.3500 -73.0167 210° Southwest 440 506 34,000  Level Montreal Center
Fri 12:50:09 PM 54.2500 -73.1167 210° Southwest 450 518 34,000  Level Montreal Center
Fri 12:51:09 PM 54.1333 -73.2333 210° Southwest 450 518 34,000  Level Montreal Center
Fri 12:52:09 PM 54.0333 -73.3500 214° Southwest 450 518 34,000  Level Montreal Center
Fri 12:53:09 PM 53.9333 -73.4667 214° Southwest 450 518 34,000  Level Montreal Center
Fri 12:54:09 PM 53.8167 -73.5667 207° Southwest 450 518 34,000  Level Montreal Center
Fri 12:55:09 PM 53.7167 -73.6833 215° Southwest 450 518 34,000  Level Montreal Center
Fri 12:56:09 PM 53.6000 -73.7833 207° Southwest 450 518 34,000  Level Montreal Center
Fri 12:57:09 PM 53.4667 -73.9000 208° Southwest 460 529 34,000  Level Montreal Center
Fri 12:58:09 PM 53.3667 -73.9833 206° Southwest 460 529 34,000  Level Montreal Center
Fri 12:59:09 PM 53.2500 -74.0833 207° Southwest 460 529 34,000  Level Montreal Center
Fri 01:00:09 PM 53.1333 -74.1667 203° Southwest 450 518 34,000  Level Montreal Center
Fri 01:01:09 PM 53.0167 -74.2500 203° Southwest 460 529 34,000  Level Montreal Center
Fri 01:02:09 PM 52.9167 -74.3667 215° Southwest 460 529 34,000  Level Montreal Center
Fri 01:03:09 PM 52.8000 -74.4667 207° Southwest 450 518 34,000  Level Montreal Center
Fri 01:04:09 PM 52.6833 -74.5500 203° Southwest 460 529 34,000  Level Montreal Center
Fri 01:05:09 PM 52.5833 -74.6333 207° Southwest 460 529 34,000  Level Montreal Center
Fri 01:06:09 PM 52.4500 -74.7167 201° Southwest 450 518 34,000  Level Montreal Center
Fri 01:07:09 PM 52.3333 -74.8333 211° Southwest 460 529 34,000  Level Montreal Center
Fri 01:08:08 PM 52.2167 -74.9167 204° Southwest 440 506 34,000  Level Montreal Center
Fri 01:09:09 PM 52.1000 -75.0000 204° Southwest 450 518 34,000  Level Montreal Center
Fri 01:10:09 PM 51.9833 -75.0833 204° Southwest 470 541 34,000  Level Montreal Center
Fri 01:11:09 PM 51.8667 -75.1667 204° Southwest 460 529 34,000  Level Montreal Center
Fri 01:12:09 PM 51.7500 -75.2833 212° Southwest 450 518 34,000  Level Montreal Center
Fri 01:13:09 PM 51.6500 -75.3667 207° Southwest 460 529 34,000  Level Montreal Center
Fri 01:14:09 PM 51.5167 -75.4500 201° Southwest 460 529 34,000  Level Montreal Center
Fri 01:15:09 PM 51.4167 -75.5333 207° Southwest 460 529 34,000  Level Montreal Center
Fri 01:16:09 PM 51.3000 -75.6167 204° Southwest 460 529 34,000  Level Montreal Center
Fri 01:17:09 PM 51.1833 -75.7167 208° Southwest 460 529 34,000  Level Montreal Center
Fri 01:18:09 PM 51.0667 -75.8000 204° Southwest 460 529 34,000  Level Montreal Center
Fri 01:19:09 PM 50.9500 -75.8833 204° Southwest 460 529 34,000  Level Montreal Center
Fri 01:20:09 PM 50.8333 -75.9667 204° Southwest 460 529 34,000  Level Montreal Center
Fri 01:21:08 PM 50.7167 -76.0667 208° Southwest 460 529 34,000  Level Montreal Center
Fri 01:22:08 PM 50.6000 -76.1500 204° Southwest 460 529 34,000  Level Montreal Center
Fri 01:23:08 PM 50.4833 -76.2333 204° Southwest 460 529 34,000  Level Montreal Center
Fri 01:24:08 PM 50.3667 -76.3000 200° South 460 529 34,000  Level Montreal Center
Fri 01:25:08 PM 50.2667 -76.3833 208° Southwest 460 529 34,000  Level Montreal Center
Fri 01:26:08 PM 50.1333 -76.4833 206° Southwest 460 529 34,000  Level Montreal Center
Fri 01:27:08 PM 50.0167 -76.5667 205° Southwest 460 529 34,000  Level Montreal Center
Fri 01:28:08 PM 49.8833 -76.6500 202° Southwest 460 529 34,000  Level Montreal Center
Fri 01:29:08 PM 49.7833 -76.7167 203° Southwest 460 529 34,000  Level Montreal Center
Fri 01:30:08 PM 49.6500 -76.8167 206° Southwest 460 529 34,000  Level Montreal Center
Fri 01:31:08 PM 49.5500 -76.9000 208° Southwest 450 518 34,000  Level Montreal Center
Fri 01:32:08 PM 49.4167 -76.9667 198° South 470 541 34,000  Level Montreal Center
Fri 01:33:08 PM 49.3167 -77.0500 209° Southwest 470 541 34,000  Level Montreal Center
Fri 01:34:08 PM 49.2000 -77.1500 209° Southwest 450 518 34,000  Level Montreal Center
Fri 01:35:08 PM 49.0833 -77.2167 201° Southwest 460 529 34,000  Level Montreal Center
Fri 01:36:08 PM 48.9667 -77.3000 205° Southwest 460 529 34,000  Level Montreal Center
Fri 01:37:08 PM 48.8333 -77.3667 198° South 460 529 34,000  Level Montreal Center
Fri 01:38:08 PM 48.7167 -77.4667 209° Southwest 460 529 34,000  Level Montreal Center
Fri 01:43:47 PM 48.0470 -77.8960 209° Southwest 476 548 34,000  Level FlightAware ADS-B
Fri 01:44:55 PM 47.9200 -77.9690 201° Southwest 476 548 34,000  Level FlightAware ADS-B
Fri 01:45:43 PM 47.8360 -78.0170 201° Southwest 476 548 34,000  Level FlightAware ADS-B
Fri 01:46:22 PM 47.7680 -78.0560 201° Southwest 476 548 34,000  Level FlightAware ADS-B
Fri 01:47:13 PM 47.6210 -78.1430 202° Southwest 475 547 34,000  Level FlightAware ADS-B
Fri 01:47:44 PM 47.5560 -78.1810 202° Southwest 474 545 34,000  Level FlightAware ADS-B
Fri 01:48:50 PM 47.4210 -78.2580 201° Southwest 473 544 34,000  Level FlightAware ADS-B
Fri 01:49:26 PM 47.3470 -78.3000 201° Southwest 473 544 34,000  Level FlightAware ADS-B
Fri 01:50:04 PM 47.2700 -78.3440 201° Southwest 471 542 34,000  Level FlightAware ADS-B
Fri 01:50:46 PM 47.1840 -78.3930 201° Southwest 470 541 34,000  Level FlightAware ADS-B
Fri 01:51:16 PM 47.1230 -78.4270 201° Southwest 471 542 34,000  Level FlightAware ADS-B
Fri 01:51:56 PM 47.0430 -78.4720 201° Southwest 470 541 34,000  Level FlightAware ADS-B
Fri 01:52:32 PM 46.9690 -78.5140 201° Southwest 470 541 34,000  Level FlightAware ADS-B
Fri 01:53:10 PM 46.8930 -78.5570 201° Southwest 470 541 34,000  Level FlightAware ADS-B
Fri 01:53:48 PM 46.8160 -78.5990 200° South 470 541 34,000  Level FlightAware ADS-B
Fri 01:54:16 PM 46.7580 -78.6320 201° Southwest 471 542 34,000  Level FlightAware ADS-B
Fri 01:54:54 PM 46.6850 -78.6730 201° Southwest 472 543 34,000  Level FlightAware ADS-B
Fri 01:55:34 PM 46.6000 -78.7200 201° Southwest 472 543 34,000  Level FlightAware ADS-B
Fri 01:56:36 PM 46.4730 -78.7900 201° Southwest 472 543 34,000  Level FlightAware ADS-B
Fri 01:57:16 PM 46.3920 -78.8340 201° Southwest 472 543 34,000  Level FlightAware ADS-B
Fri 01:57:48 PM 46.3270 -78.8700 201° Southwest 471 542 34,000  Level FlightAware ADS-B
Fri 01:58:56 PM 46.1880 -78.9450 200° South 470 541 34,000  Level FlightAware ADS-B
Fri 02:00:01 PM 46.0560 -79.0170 201° Southwest 470 541 34,000  Level FlightAware ADS-B
Fri 02:01:04 PM 45.9280 -79.0860 201° Southwest 466 536 34,000  Level FlightAware ADS-B
Fri 02:01:44 PM 45.8470 -79.1300 201° Southwest 464 534 34,000  Level FlightAware ADS-B
Fri 02:02:16 PM 45.7840 -79.1640 201° Southwest 463 533 34,000  Level FlightAware ADS-B
Fri 02:02:52 PM 45.7110 -79.2030 200° South 464 534 34,000  Level FlightAware ADS-B
Fri 02:03:24 PM 45.6470 -79.2370 200° South 464 534 34,000  Level FlightAware ADS-B
Fri 02:03:56 PM 45.5820 -79.2710 200° South 465 535 34,000  Level FlightAware ADS-B
Fri 02:04:34 PM 45.5060 -79.3120 201° Southwest 465 535 34,000  Level FlightAware ADS-B
Fri 02:05:10 PM 45.4320 -79.3510 200° South 465 535 34,000  Level FlightAware ADS-B
Fri 02:05:52 PM 45.3520 -79.3930 200° South 466 536 34,000  Level FlightAware ADS-B
Fri 02:06:43 PM 45.2470 -79.4480 200° South 467 537 34,000  Level FlightAware ADS-B
Fri 02:07:15 PM 45.1820 -79.4820 200° South 467 537 34,000  Level FlightAware ADS-B
Fri 02:07:52 PM 45.1080 -79.5210 200° South 468 539 34,000  Level FlightAware ADS-B
Fri 02:08:22 PM 45.0460 -79.5540 201° Southwest 469 540 34,000  Level FlightAware ADS-B
Fri 02:08:55 PM 44.9800 -79.5880 200° South 469 540 34,000  Level FlightAware ADS-B
Fri 02:09:56 PM 44.8570 -79.6510 200° South 469 540 34,000  Level FlightAware ADS-B
Fri 02:10:24 PM 44.7990 -79.6810 200° South 469 540 34,000  Level FlightAware ADS-B
Fri 02:10:55 PM 44.7370 -79.7140 201° Southwest 469 540 34,000  Level FlightAware ADS-B
Fri 02:11:32 PM 44.6880 -79.7390 200° South 469 540 34,000  Level FlightAware ADS-B
Fri 02:12:16 PM 44.5730 -79.8040 202° Southwest 460 529 34,000  Level FlightAware ADS-B
Fri 02:12:54 PM 44.5060 -79.8610 211° Southwest 455 524 34,000  Level FlightAware ADS-B
Fri 02:14:03 PM 44.3840 -79.9710 213° Southwest 454 522 34,000  Level FlightAware ADS-B
Fri 02:14:37 PM 44.3240 -80.0260 213° Southwest 452 520 34,000  Level FlightAware ADS-B
Fri 02:15:51 PM 44.1910 -80.1450 213° Southwest 452 520 34,000  Level FlightAware ADS-B
Fri 02:16:27 PM 44.1310 -80.1970 212° Southwest 451 519 34,000  Level FlightAware ADS-B
Fri 02:17:03 PM 44.0650 -80.2560 213° Southwest 450 518 34,000  Level FlightAware ADS-B
Fri 02:17:39 PM 44.0010 -80.3130 213° Southwest 450 518 34,000  Level FlightAware ADS-B
Fri 02:18:20 PM 43.9320 -80.3740 212° Southwest 449 517 34,000  Level FlightAware ADS-B
Fri 02:18:46 PM 43.8820 -80.4180 212° Southwest 448 516 34,000  Level FlightAware ADS-B
Fri 02:19:49 PM 43.7740 -80.5130 212° Southwest 444 511 34,000  Level FlightAware ADS-B
Fri 02:20:55 PM 43.6610 -80.6110 212° Southwest 444 511 34,000  Level FlightAware ADS-B
Fri 02:21:48 PM 43.5679 -80.6929 213° Southwest 443 510 34,000  Level FlightAware ADS-B
Fri 02:22:20 PM 43.5144 -80.7393 212° Southwest 442 509 34,000  Level FlightAware ADS-B
Fri 02:22:58 PM 43.4478 -80.7971 212° Southwest 439 505 34,000  Level FlightAware ADS-B
Fri 02:23:30 PM 43.3929 -80.8444 212° Southwest 436 502 34,000  Level FlightAware ADS-B
Fri 02:24:09 PM 43.3318 -80.8971 212° Southwest 437 503 34,000  Level FlightAware ADS-B
Fri 02:24:55 PM 43.2520 -80.9660 212° Southwest 437 503 34,000  Level FlightAware ADS-B
Fri 02:26:07 PM 43.1250 -81.0750 212° Southwest 438 504 34,000  Level FlightAware ADS-B
Fri 02:26:42 PM 43.0640 -81.1260 211° Southwest 439 505 34,000  Level FlightAware ADS-B
Fri 02:27:24 PM 42.9850 -81.1820 207° Southwest 450 518 34,000  Level FlightAware ADS-B
Fri 02:28:27 PM 42.8650 -81.2560 204° Southwest 455 524 34,000  Level FlightAware ADS-B
Fri 02:29:08 PM 42.7880 -81.3030 204° Southwest 457 526 34,000  Level FlightAware ADS-B
Fri 02:30:11 PM 42.6670 -81.3770 204° Southwest 457 526 34,000  Level FlightAware ADS-B
Fri 02:30:42 PM 42.6060 -81.4140 204° Southwest 456 525 34,000  Level FlightAware ADS-B
Fri 02:31:11 PM 42.5520 -81.4480 205° Southwest 455 524 34,000  Level FlightAware ADS-B
Fri 02:31:57 PM 42.4660 -81.5000 204° Southwest 453 521 34,000  Level FlightAware ADS-B
Fri 02:32:34 PM 42.3910 -81.5460 204° Southwest 452 520 34,000  Level FlightAware ADS-B
Fri 02:33:11 PM 42.3250 -81.5860 204° Southwest 452 520 34,000  Level FlightAware ADS-B
Fri 02:33:52 PM 42.2460 -81.6330 204° Southwest 450 518 34,000  Level FlightAware ADS-B
Fri 02:34:23 PM 42.1840 -81.6710 204° Southwest 449 517 34,000  Level FlightAware ADS-B
Fri 02:35:04 PM 42.1060 -81.7180 204° Southwest 447 514 34,000  Level FlightAware ADS-B
Fri 02:35:32 PM 42.0530 -81.7500 204° Southwest 447 514 34,000  Level FlightAware ADS-B
Fri 02:36:16 PM 41.9720 -81.7980 204° Southwest 446 513 34,000  Level FlightAware ADS-B
Fri 02:36:43 PM 41.9190 -81.8300 204° Southwest 445 512 34,000  Level FlightAware ADS-B
Fri 02:37:20 PM 41.8530 -81.8690 204° Southwest 445 512 34,000  Level FlightAware ADS-B
Fri 02:38:08 PM 41.7610 -81.9240 204° Southwest 445 512 34,000  Level FlightAware ADS-B
Fri 02:38:44 PM 41.6930 -81.9640 204° Southwest 444 511 34,000  Level FlightAware ADS-B
Fri 02:39:12 PM 41.6390 -81.9960 204° Southwest 445 512 34,000  Level FlightAware ADS-B
Fri 02:39:54 PM 41.5610 -82.0420 204° Southwest 443 510 34,000  Level FlightAware ADS-B
Fri 02:40:30 PM 41.4940 -82.0820 204° Southwest 443 510 34,000  Level FlightAware ADS-B
Fri 02:41:06 PM 41.4280 -82.1210 204° Southwest 444 511 34,000  Level FlightAware ADS-B
Fri 02:41:37 PM 41.3670 -82.1550 203° Southwest 450 518 34,000  Level FlightAware ADS-B
Fri 02:42:37 PM 41.2460 -82.2030 197° South 459 528 34,000  Level FlightAware ADS-B
Fri 02:43:10 PM 41.1780 -82.2270 195° South 459 528 34,000  Level FlightAware ADS-B
Fri 02:44:14 PM 41.0470 -82.2730 195° South 456 525 34,000  Level FlightAware ADS-B
Fri 02:44:50 PM 40.9740 -82.2990 195° South 454 522 34,000  Level FlightAware ADS-B
Fri 02:45:30 PM 40.8940 -82.3280 195° South 453 521 34,000  Level FlightAware ADS-B
Fri 02:46:02 PM 40.8290 -82.3510 195° South 453 521 34,000  Level FlightAware ADS-B
Fri 02:46:36 PM 40.7620 -82.3740 195° South 452 520 34,000  Level FlightAware ADS-B
Fri 02:47:39 PM 40.6350 -82.4190 195° South 450 518 34,000  Level FlightAware ADS-B
Fri 02:48:19 PM 40.5540 -82.4480 195° South 449 517 34,000  Level FlightAware ADS-B
Fri 02:48:52 PM 40.4840 -82.4720 195° South 448 516 34,000  Level FlightAware ADS-B
Fri 02:49:24 PM 40.4210 -82.4940 195° South 446 513 34,000  Level FlightAware ADS-B
Fri 02:49:56 PM 40.3580 -82.5160 195° South 445 512 34,000  Level FlightAware ADS-B
Fri 02:50:51 PM 40.2490 -82.5540 195° South 442 509 34,000  Level FlightAware ADS-B
Fri 02:51:28 PM 40.1750 -82.5790 194° South 443 510 34,000  Level FlightAware ADS-B
Fri 02:51:56 PM 40.1180 -82.5900 188° South 456 525 34,000  Level FlightAware ADS-B
Fri 02:52:34 PM 40.0380 -82.5970 184° South 458 527 34,000  Level FlightAware ADS-B
Fri 02:53:10 PM 39.9600 -82.6010 182° South 458 527 34,000  Level FlightAware ADS-B
Fri 02:54:08 PM 39.8380 -82.6090 183° South 456 525 34,000  Level FlightAware ADS-B
Fri 02:54:28 PM 39.7950 -82.6120 183° South 455 524 34,000  Level FlightAware ADS-B
Fri 02:55:32 PM 39.6620 -82.6210 183° South 454 522 34,000  Level FlightAware ADS-B
Fri 02:56:06 PM 39.5910 -82.6260 183° South 454 522 34,000  Level FlightAware ADS-B
Fri 02:56:30 PM 39.5390 -82.6300 183° South 453 521 34,000  Level FlightAware ADS-B
Fri 02:57:08 PM 39.4600 -82.6350 183° South 454 522 34,000  Level FlightAware ADS-B
Fri 02:57:46 PM 39.3800 -82.6400 183° South 454 522 34,000  Level FlightAware ADS-B
Fri 02:58:24 PM 39.3000 -82.6460 183° South 454 522 34,000  Level FlightAware ADS-B
Fri 02:58:46 PM 39.2540 -82.6480 182° South 459 528 34,000  Level FlightAware ADS-B
Fri 02:59:31 PM 39.1570 -82.6370 175° South 474 545 34,000  Level FlightAware ADS-B
Fri 03:00:06 PM 39.0790 -82.6280 175° South 475 547 34,000  Level FlightAware ADS-B
Fri 03:01:04 PM 38.9540 -82.6130 175° South 476 548 34,000  Level FlightAware ADS-B
Fri 03:01:36 PM 38.8810 -82.6040 175° South 476 548 34,000  Level FlightAware ADS-B
Fri 03:02:15 PM 38.7980 -82.5950 175° South 477 549 34,000  Level FlightAware ADS-B
Fri 03:02:54 PM 38.7120 -82.5850 175° South 478 550 34,000  Level FlightAware ADS-B
Fri 03:03:46 PM 38.5970 -82.5730 175° South 480 552 34,000  Level FlightAware ADS-B
Fri 03:04:55 PM 38.4420 -82.5580 176° South 482 555 34,000  Level FlightAware ADS-B
Fri 03:05:48 PM 38.3242 -82.5533 178° South 459 528 34,000  Level FlightAware ADS-B
Fri 03:06:13 PM 38.2748 -82.5688 194° South 442 509 34,000  Level FlightAware ADS-B
Fri 03:06:49 PM 38.2090 -82.6047 203° Southwest 425 489 34,000  Level FlightAware ADS-B
Fri 03:07:38 PM 38.1219 -82.6565 205° Southwest 427 491 34,000  Level FlightAware ADS-B
Fri 03:08:10 PM 38.0647 -82.6894 204° Southwest 427 491 34,000  Level FlightAware ADS-B
Fri 03:08:41 PM 38.0084 -82.7211 204° Southwest 427 491 34,000  Level FlightAware ADS-B
Fri 03:09:14 PM 37.9495 -82.7548 204° Southwest 426 490 34,000  Level FlightAware ADS-B
Fri 03:09:45 PM 37.8939 -82.7865 204° Southwest 426 490 34,000  Level FlightAware ADS-B
Fri 03:10:16 PM 37.8368 -82.8191 204° Southwest 426 490 34,000  Level FlightAware ADS-B
Fri 03:10:56 PM 37.7657 -82.8597 204° Southwest 426 490 34,000  Level FlightAware ADS-B
Fri 03:11:33 PM 37.7000 -82.8973 204° Southwest 427 491 34,000  Level FlightAware ADS-B
Fri 03:12:08 PM 37.6365 -82.9334 204° Southwest 428 493 34,000  Level FlightAware ADS-B
Fri 03:12:41 PM 37.5762 -82.9677 204° Southwest 428 493 34,000  Level FlightAware ADS-B
Fri 03:13:34 PM 37.4801 -83.0223 204° Southwest 429 494 34,000  Level FlightAware ADS-B
Fri 03:14:06 PM 37.4237 -83.0542 204° Southwest 429 494 34,000  Level FlightAware ADS-B
Fri 03:14:37 PM 37.3667 -83.0863 204° Southwest 430 495 34,000  Level FlightAware ADS-B
Fri 03:15:34 PM 37.2645 -83.1441 204° Southwest 431 496 34,000  Level FlightAware ADS-B
Fri 03:16:05 PM 37.2078 -83.1760 204° Southwest 431 496 34,000  Level FlightAware ADS-B
Fri 03:16:35 PM 37.1523 -83.2070 204° Southwest 430 495 34,000  Level FlightAware ADS-B
Fri 03:17:06 PM 37.0961 -83.2385 204° Southwest 430 495 34,000  Level FlightAware ADS-B
Fri 03:17:36 PM 37.0414 -83.2691 204° Southwest 429 494 34,000  Level FlightAware ADS-B
Fri 03:18:06 PM 36.9871 -83.2995 204° Southwest 428 493 34,000  Level FlightAware ADS-B
Fri 03:18:37 PM 36.9329 -83.3297 204° Southwest 428 493 34,000  Level FlightAware ADS-B
Fri 03:19:07 PM 36.8784 -83.3602 204° Southwest 427 491 34,000  Level FlightAware ADS-B
Fri 03:19:39 PM 36.8207 -83.3923 204° Southwest 426 490 34,000  Level FlightAware ADS-B
Fri 03:20:10 PM 36.7643 -83.4235 204° Southwest 424 488 34,000  Level FlightAware ADS-B
Fri 03:20:41 PM 36.7095 -83.4538 204° Southwest 423 487 34,000  Level FlightAware ADS-B
Fri 03:21:12 PM 36.6528 -83.4853 204° Southwest 423 487 34,000  Level FlightAware ADS-B
Fri 03:21:43 PM 36.5988 -83.5151 204° Southwest 422 486 34,000  Level FlightAware ADS-B
Fri 03:22:14 PM 36.5433 -83.5459 204° Southwest 422 486 34,000  Level FlightAware ADS-B
Fri 03:22:44 PM 36.4894 -83.5754 204° Southwest 422 486 34,000  Level FlightAware ADS-B
Fri 03:23:14 PM 36.4353 -83.6051 204° Southwest 420 483 34,000  Level FlightAware ADS-B
Fri 03:23:45 PM 36.3813 -83.6348 204° Southwest 419 482 34,000  Level FlightAware ADS-B
Fri 03:24:16 PM 36.3268 -83.6647 204° Southwest 419 482 34,000  Level FlightAware ADS-B
Fri 03:24:46 PM 36.2729 -83.6943 204° Southwest 419 482 34,000  Level FlightAware ADS-B
Fri 03:25:16 PM 36.2191 -83.7237 204° Southwest 419 482 34,000 194 Level FlightAware ADS-B
Fri 03:25:48 PM 36.1624 -83.7546 204° Southwest 418 481 34,200 476 Climbing FlightAware ADS-B
Fri 03:26:19 PM 36.1075 -83.7845 204° Southwest 420 483 34,500 581 Climbing FlightAware ADS-B
Fri 03:26:50 PM 36.0534 -83.8141 204° Southwest 421 484 34,800 492 Climbing FlightAware ADS-B
Fri 03:27:20 PM 35.9989 -83.8436 204° Southwest 420 483 35,000 185 Climbing FlightAware ADS-B
Fri 03:27:55 PM 35.9368 -83.8772 204° Southwest 422 486 35,000  Level FlightAware ADS-B
Fri 03:28:18 PM 35.8945 -83.8956 199° South 435 501 35,000  Level FlightAware ADS-B
Fri 03:28:37 PM 35.8564 -83.9069 194° South 444 511 35,000  Level FlightAware ADS-B
Fri 03:29:07 PM 35.7949 -83.9220 191° South 448 516 35,000  Level FlightAware ADS-B
Fri 03:29:38 PM 35.7329 -83.9366 191° South 448 516 35,000  Level FlightAware ADS-B
Fri 03:30:10 PM 35.6676 -83.9521 191° South 445 512 35,000  Level FlightAware ADS-B
Fri 03:30:44 PM 35.5990 -83.9686 191° South 444 511 35,000  Level FlightAware ADS-B
Fri 03:31:15 PM 35.5370 -83.9838 191° South 443 510 35,000  Level FlightAware ADS-B
Fri 03:31:51 PM 35.4646 -84.0015 191° South 442 509 35,000  Level FlightAware ADS-B
Fri 03:32:22 PM 35.4027 -84.0164 191° South 442 509 35,000  Level FlightAware ADS-B
Fri 03:33:22 PM 35.2818 -84.0456 191° South 442 509 35,000  Level FlightAware ADS-B
Fri 03:33:53 PM 35.2195 -84.0605 191° South 442 509 35,000  Level FlightAware ADS-B
Fri 03:34:24 PM 35.1575 -84.0753 191° South 444 511 35,000  Level FlightAware ADS-B
Fri 03:34:56 PM 35.0929 -84.0908 191° South 444 511 35,000  Level FlightAware ADS-B
Fri 03:35:26 PM 35.0317 -84.1054 191° South 443 510 35,000  Level FlightAware ADS-B
Fri 03:36:42 PM 34.8781 -84.1421 191° South 443 510 35,000  Level FlightAware ADS-B
Fri 03:37:13 PM 34.8158 -84.1570 191° South 442 509 35,000  Level FlightAware ADS-B
Fri 03:37:47 PM 34.7492 -84.1728 191° South 442 509 35,000  Level FlightAware ADS-B
Fri 03:38:17 PM 34.6885 -84.1872 191° South 442 509 35,000  Level FlightAware ADS-B
Fri 03:38:49 PM 34.6238 -84.2025 191° South 443 510 35,000  Level FlightAware ADS-B
Fri 03:39:19 PM 34.5629 -84.2168 191° South 444 511 35,000  Level FlightAware ADS-B
Fri 03:39:49 PM 34.5021 -84.2311 191° South 444 511 35,000  Level FlightAware ADS-B
Fri 03:40:20 PM 34.4395 -84.2459 191° South 444 511 35,000  Level FlightAware ADS-B
Fri 03:40:52 PM 34.3753 -84.2610 191° South 445 512 35,000  Level FlightAware ADS-B
Fri 03:42:00 PM 34.2386 -84.2931 191° South 444 511 35,000  Level FlightAware ADS-B
Fri 03:42:33 PM 34.1708 -84.3090 191° South 444 511 35,000  Level FlightAware ADS-B
Fri 03:43:41 PM 34.0344 -84.3408 191° South 442 509 35,000  Level FlightAware ADS-B
Fri 03:44:12 PM 33.9725 -84.3553 191° South 442 509 35,000  Level FlightAware ADS-B
Fri 03:44:45 PM 33.9059 -84.3708 191° South 441 507 35,000  Level FlightAware ADS-B
Fri 03:45:17 PM 33.8423 -84.3855 191° South 439 505 35,000  Level FlightAware ADS-B
Fri 03:45:48 PM 33.7813 -84.3997 191° South 438 504 35,000  Level FlightAware ADS-B
Fri 03:46:19 PM 33.7187 -84.4142 191° South 436 502 35,000  Level FlightAware ADS-B
Fri 03:46:59 PM 33.6405 -84.4309 190° South 440 506 35,000  Level FlightAware ADS-B
Fri 03:47:19 PM 33.5989 -84.4341 184° South 449 517 35,000  Level FlightAware ADS-B
Fri 03:48:27 PM 33.4551 -84.4315 179° South 452 520 35,000  Level FlightAware ADS-B
Fri 03:49:53 PM 33.2790 -84.4280 179° South 448 516 35,000  Level FlightAware ADS-B
Fri 03:50:47 PM 33.1650 -84.4250 179° South 449 517 35,000  Level FlightAware ADS-B
Fri 03:51:16 PM 33.1070 -84.4240 179° South 449 517 35,000  Level FlightAware ADS-B
Fri 03:51:53 PM 33.0300 -84.4230 179° South 449 517 35,000  Level FlightAware ADS-B
Fri 03:52:32 PM 32.9480 -84.4210 179° South 450 518 35,000  Level FlightAware ADS-B
Fri 03:53:06 PM 32.8790 -84.4200 179° South 450 518 35,000  Level FlightAware ADS-B
Fri 03:53:36 PM 32.8140 -84.4180 179° South 450 518 35,000  Level FlightAware ADS-B
Fri 03:54:11 PM 32.7410 -84.4170 179° South 451 519 35,000  Level FlightAware ADS-B
Fri 03:55:16 PM 32.6060 -84.4140 179° South 451 519 35,000  Level FlightAware ADS-B
Fri 03:56:18 PM 32.4790 -84.4110 179° South 450 518 35,000  Level FlightAware ADS-B
Fri 03:56:49 PM 32.4130 -84.4100 179° South 450 518 35,000  Level FlightAware ADS-B
Fri 03:57:26 PM 32.3420 -84.4090 179° South 450 518 35,000  Level FlightAware ADS-B
Fri 03:57:54 PM 32.2830 -84.4080 179° South 449 517 35,000  Level FlightAware ADS-B
Fri 03:58:44 PM 32.1750 -84.4050 179° South 449 517 35,000  Level FlightAware ADS-B
Fri 03:59:45 PM 32.0460 -84.4030 179° South 449 517 35,000  Level FlightAware ADS-B
Fri 04:00:01 PM 32.0150 -84.4020 178° South 449 517 35,000  Level FlightAware ADS-B
Fri 04:01:14 PM 31.8620 -84.3990 179° South 449 517 35,000  Level FlightAware ADS-B
Fri 04:01:42 PM 31.8050 -84.3980 179° South 450 518 35,000  Level FlightAware ADS-B
Fri 04:02:05 PM 31.7550 -84.3970 179° South 449 517 35,000  Level FlightAware ADS-B
Fri 04:03:00 PM 31.6410 -84.3950 179° South 449 517 35,000  Level FlightAware ADS-B
Fri 04:04:07 PM 31.5010 -84.3920 179° South 451 519 35,000  Level FlightAware ADS-B
Fri 04:04:42 PM 31.4290 -84.3910 179° South 452 520 35,000  Level FlightAware ADS-B
Fri 04:05:16 PM 31.3560 -84.3890 179° South 453 521 35,000  Level FlightAware ADS-B
Fri 04:06:10 PM 31.2410 -84.3870 179° South 453 521 35,000  Level FlightAware ADS-B
Fri 04:06:47 PM 31.1640 -84.3860 179° South 453 521 35,000  Level FlightAware ADS-B
Fri 04:07:20 PM 31.0960 -84.3840 179° South 454 522 35,000  Level FlightAware ADS-B
Fri 04:07:57 PM 31.0188 -84.3827 179° South 454 522 35,000  Level FlightAware ADS-B (KONZ)
Fri 04:08:37 PM 30.9330 -84.3811 179° South 454 522 35,000  Level FlightAware ADS-B
Fri 04:09:13 PM 30.8572 -84.3796 179° South 455 524 35,000  Level FlightAware ADS-B (KONZ)
Fri 04:09:47 PM 30.7851 -84.3782 179° South 456 525 35,000  Level FlightAware ADS-B
Fri 04:10:17 PM 30.7234 -84.3770 179° South 456 525 35,000  Level FlightAware ADS-B
Fri 04:10:48 PM 30.6608 -84.3758 179° South 457 526 35,000  Level FlightAware ADS-B
Fri 04:11:18 PM 30.5935 -84.3740 179° South 458 527 35,000  Level FlightAware ADS-B
Fri 04:11:33 PM 30.5608 -84.3675 170° South 472 543 35,000  Level FlightAware ADS-B (KONZ)
Fri 04:11:54 PM 30.5197 -84.3495 159° South 484 557 35,000  Level FlightAware ADS-B (KONZ)
Fri 04:12:28 PM 30.4514 -84.3068 152° Southeast 489 563 35,000  Level FlightAware ADS-B
Fri 04:13:04 PM 30.3804 -84.2593 150° Southeast 490 564 35,000  Level FlightAware ADS-B (KONZ)
Fri 04:13:36 PM 30.3171 -84.2170 150° Southeast 491 565 35,000  Level FlightAware ADS-B
Fri 04:14:07 PM 30.2577 -84.1777 150° Southeast 490 564 35,000  Level FlightAware ADS-B
Fri 04:14:41 PM 30.1962 -84.1375 151° Southeast 489 563 35,000  Level FlightAware ADS-B (KONZ)
Fri 04:15:13 PM 30.1287 -84.0937 151° Southeast 489 563 35,000  Level FlightAware ADS-B (KONZ)
Fri 04:15:43 PM 30.0688 -84.0548 151° Southeast 489 563 35,000  Level FlightAware ADS-B (KONZ)
Fri 04:16:47 PM 30.0412 -84.0369 151° Southeast 488 562 35,000  Level FlightAware ADS-B
Fri 04:17:43 PM 29.8340 -83.9030 151° Southeast 486 559 35,000  Level FlightAware ADS-B
Fri 04:18:50 PM 29.6990 -83.8160 151° Southeast 486 559 35,000  Level FlightAware ADS-B
Fri 04:19:19 PM 29.6420 -83.7790 151° Southeast 486 559 35,000  Level FlightAware ADS-B
Fri 04:19:51 PM 29.5780 -83.7380 151° Southeast 487 560 35,000  Level FlightAware ADS-B
Fri 04:20:23 PM 29.5160 -83.6980 151° Southeast 486 559 35,000  Level FlightAware ADS-B
Fri 04:21:37 PM 29.3710 -83.6050 151° Southeast 487 560 35,000  Level FlightAware ADS-B
Fri 04:22:10 PM 29.3060 -83.5640 151° Southeast 486 559 35,000  Level FlightAware ADS-B
Fri 04:22:40 PM 29.2460 -83.5250 150° Southeast 486 559 35,000  Level FlightAware ADS-B
Fri 04:23:15 PM 29.1850 -83.4870 151° Southeast 487 560 35,000  Level FlightAware ADS-B
Fri 04:23:58 PM 29.0940 -83.4280 150° Southeast 485 558 35,000  Level FlightAware ADS-B
Fri 04:24:50 PM 28.9920 -83.3640 151° Southeast 484 557 35,000  Level FlightAware ADS-B
Fri 04:25:25 PM 28.9240 -83.3210 151° Southeast 483 556 35,000  Level FlightAware ADS-B
Fri 04:26:24 PM 28.8090 -83.2480 151° Southeast 482 555 35,000  Level FlightAware ADS-B
Fri 04:26:49 PM 28.7620 -83.2180 151° Southeast 482 555 35,000  Level FlightAware ADS-B
Fri 04:27:24 PM 28.6910 -83.1730 151° Southeast 481 554 35,000  Level FlightAware ADS-B
Fri 04:28:24 PM 28.5800 -83.1030 151° Southeast 480 552 35,000  Level FlightAware ADS-B
Fri 04:29:01 PM 28.5020 -83.0540 151° Southeast 480 552 35,000  Level FlightAware ADS-B
Fri 04:29:34 PM 28.4370 -83.0140 152° Southeast 480 552 35,000  Level FlightAware ADS-B
Fri 04:30:06 PM 28.3750 -82.9750 151° Southeast 479 551 35,000  Level FlightAware ADS-B
Fri 04:30:42 PM 28.3080 -82.9330 151° Southeast 478 550 35,000  Level FlightAware ADS-B
Fri 04:31:39 PM 28.1970 -82.8640 151° Southeast 478 550 35,000  Level FlightAware ADS-B
Fri 04:32:04 PM 28.1460 -82.8320 151° Southeast 477 549 35,000  Level FlightAware ADS-B
Fri 04:32:39 PM 28.0790 -82.7900 151° Southeast 477 549 35,000  Level FlightAware ADS-B
Fri 04:33:40 PM 27.9590 -82.7160 151° Southeast 477 549 35,000  Level FlightAware ADS-B
Fri 04:34:08 PM 27.9050 -82.6830 152° Southeast 476 548 35,000  Level FlightAware ADS-B
Fri 04:35:10 PM 27.7900 -82.6050 149° Southeast 475 547 35,000  Level FlightAware ADS-B
Fri 04:35:30 PM 27.7500 -82.5790 150° Southeast 475 547 35,000  Level FlightAware ADS-B
Fri 04:36:07 PM 27.6810 -82.5330 149° Southeast 475 547 35,000  Level FlightAware ADS-B
Fri 04:37:03 PM 27.5750 -82.4620 149° Southeast 475 547 35,000  Level FlightAware ADS-B
Fri 04:37:28 PM 27.5270 -82.4300 149° Southeast 474 545 35,000  Level FlightAware ADS-B
Fri 04:37:56 PM 27.4730 -82.3950 150° Southeast 473 544 35,000  Level FlightAware ADS-B
Fri 04:38:56 PM 27.3600 -82.3200 149° Southeast 472 543 35,000  Level FlightAware ADS-B
Fri 04:39:40 PM 27.2790 -82.2670 150° Southeast 473 544 35,000  Level FlightAware ADS-B
Fri 04:40:14 PM 27.2140 -82.2230 149° Southeast 473 544 35,000  Level FlightAware ADS-B
Fri 04:41:08 PM 27.1110 -82.1560 150° Southeast 473 544 35,000  Level FlightAware ADS-B
Fri 04:41:35 PM 27.0630 -82.1240 149° Southeast 472 543 35,000  Level FlightAware ADS-B
Fri 04:42:14 PM 26.9890 -82.0760 150° Southeast 471 542 35,000  Level FlightAware ADS-B
Fri 04:42:50 PM 26.9130 -82.0440 159° South 463 533 35,000  Level FlightAware ADS-B
Fri 04:43:11 PM 26.8690 -82.0370 172° South 459 528 35,000  Level FlightAware ADS-B
Fri 04:44:10 PM 26.7440 -82.0300 177° South 453 521 35,000  Level FlightAware ADS-B
Fri 04:45:11 PM 26.6180 -82.0520 189° South 450 518 35,000  Level FlightAware ADS-B
Fri 04:46:07 PM 26.5050 -82.0740 190° South 451 519 35,000  Level FlightAware ADS-B
Fri 04:46:59 PM 26.3970 -82.0930 189° South 450 518 35,000  Level FlightAware ADS-B
Fri 04:47:30 PM 26.3340 -82.1050 190° South 449 517 35,000  Level FlightAware ADS-B
Fri 04:48:24 PM 26.2210 -82.1250 189° South 447 514 35,000  Level FlightAware ADS-B
Fri 04:49:17 PM 26.1120 -82.1450 189° South 446 513 35,000  Level FlightAware ADS-B
Fri 04:50:16 PM 25.9940 -82.1660 189° South 444 511 35,000  Level FlightAware ADS-B
Fri 04:50:50 PM 25.9270 -82.1780 189° South 443 510 35,000  Level FlightAware ADS-B
Fri 04:51:45 PM 25.8140 -82.1980 189° South 443 510 35,000  Level FlightAware ADS-B
Fri 04:52:39 PM 25.7040 -82.2180 189° South 443 510 35,000  Level FlightAware ADS-B
Fri 04:53:07 PM 25.6480 -82.2280 189° South 443 510 35,000  Level FlightAware ADS-B
Fri 04:54:08 PM 25.5230 -82.2500 189° South 443 510 35,000  Level FlightAware ADS-B
Fri 04:55:09 PM 25.4010 -82.2720 189° South 444 511 35,000  Level FlightAware ADS-B
Fri 04:55:48 PM 25.3220 -82.2860 189° South 444 511 35,000  Level FlightAware ADS-B
Fri 04:56:13 PM 25.2690 -82.2950 189° South 444 511 35,000  Level FlightAware ADS-B
Fri 04:57:19 PM 25.1350 -82.3190 189° South 444 511 35,000  Level FlightAware ADS-B
Fri 04:58:13 PM 25.0250 -82.3390 189° South 444 511 35,000  Level FlightAware ADS-B
Fri 04:58:45 PM 24.9590 -82.3500 189° South 444 511 35,000 -270 Level FlightAware ADS-B
Fri 04:59:42 PM 24.8430 -82.3710 189° South 433 498 34,600 -716 Descending FlightAware ADS-B
Fri 05:00:34 PM 24.7420 -82.3890 189° South 424 488 33,700 -1,152 Descending FlightAware ADS-B
Fri 05:01:21 PM 24.6520 -82.4050 189° South 420 483 32,700 -1,237 Descending FlightAware ADS-B
Fri 05:02:11 PM 24.5580 -82.4210 189° South 415 478 31,700 -1,483 Descending FlightAware ADS-B
Fri 05:02:50 PM 24.4830 -82.4340 189° South 408 470 30,500 -1,920 Descending FlightAware ADS-B
Fri 05:03:51 PM 24.3700 -82.4540 189° South 399 459 28,500 -1,109 Descending FlightAware ADS-B
Fri 05:04:49 PM 24.2790 -82.4700 189° South 399 459 28,300 -112 Descending FlightAware ADS-B
Fri 05:05:38 PM 24.2030 -82.4830 189° South 399 459 28,300  Level FlightAware ADS-B
Fri 05:06:14 PM 24.1470 -82.4930 189° South 399 459 28,300  Level FlightAware ADS-B
Fri 05:06:50 PM 24.0910 -82.5020 188° South 399 459 28,300  Level FlightAware ADS-B
Fri 05:07:38 PM 24.0170 -82.5150 189° South 399 459 28,300  Level FlightAware ADS-B
Fri 05:14:00 PM 23.2753 -82.4250 173° South  Level FlightAware Approximate
Fri 05:15:00 PM 23.1561 -82.4167 180° South  Level FlightAware Approximate
Fri 05:16:00 PM 23.0378 -82.4000 180° South  Level FlightAware Approximate
Fri 05:17:00 PM 22.9891 -82.4091 180° South  Level Estimated
Fri 05:18:00 PM 22.9891 -82.4091 180° South  Level Estimated
Fri 05:19:00 PM 22.9891 -82.4091 180° South  Level Estimated
Fri 05:20:00 PM 22.9891 -82.4091 180° South  Level Estimated
Fri 05:21:00 PM 22.9891 -82.4091 180° South  Level Estimated
Fri 05:22:00 PM 22.9891 -82.4091 180° South  Level Estimated
Fri 05:23:00 PM 22.9891 -82.4091 180° South  Level Estimated
Fri 05:24:00 PM 22.9891 -82.4091 180° South  Level Estimated
Fri 05:25:00 PM 22.9891 -82.4091 180° South  Level Estimated
Fri 05:26:00 PM 22.9891 -82.4091 180° South  Level Estimated
Fri 05:27:00 PM 22.9891 -82.4091 180° South  Level Estimated
Fri 05:28:00 PM 22.9891 -82.4091 180° South  Level Estimated
Fri 05:29:00 PM 22.9891 -82.4091 180° South  Level Estimated
Fri 05:30:00 PM 22.9891 -82.4091 180° South  Level Estimated
Fri 05:31:00 PM 22.9891 -82.4091 180° South  Level Estimated
Fri 05:32:00 PM 22.9891 -82.4091 180° South  Level Estimated
Fri 05:33:00 PM 22.9891 -82.4091 180° South  Level Estimated
Fri 05:34:00 PM 22.9891 -82.4091 180° South  Level Estimated
Fri 05:35:00 PM 22.9891 -82.4091 180° South  Level Estimated
Fri 05:36:00 PM 22.9891 -82.4091 180° South  Level Estimated
Fri 05:37:00 PM 22.9891 -82.4091 180° South  Level Estimated
Fri 05:38:00 PM 22.9891 -82.4091 180° South  Level Estimated

Login

Don't have an account? Register now (free) for customized features, flight alerts, and more!